<?xml version="1.0" encoding="UTF-8" standalone="no" ?>
<gpx xmlns="http://www.topografix.com/GPX/1/1" xmlns:xsi="http://www.w3.org/2001/XMLSchema-instance" xsi:schemaLocation="http://www.topografix.com/GPX/1/1 http://www.topografix.com/GPX/1/1/gpx.xsd" version="1.1" creator="VisuGPX - https://www.visugpx.com">
  <metadata>
    <name>Murs - La Grande Blaque et les grottes de Berigoule</name>
    <desc><![CDATA[Balade vers les grottes de Bérigoule et la Grande Blaque à Murs.]]></desc>
  </metadata>
  <trk>
    <name><![CDATA[2021-05-03 14-39-57]]></name>
    <trkseg>
      <trkpt lat="43.95961" lon="5.248">
        <ele>497.62</ele>
        <time>2021-05-03T07:24:07Z</time>
      </trkpt>
      <trkpt lat="43.95961" lon="5.248">
        <ele>497.62</ele>
        <time>2021-05-03T07:24:08Z</time>
      </trkpt>
      <trkpt lat="43.95962" lon="5.248">
        <ele>497.14</ele>
        <time>2021-05-03T07:24:39Z</time>
      </trkpt>
      <trkpt lat="43.9596" lon="5.24803">
        <ele>497.14</ele>
        <time>2021-05-03T07:25:02Z</time>
      </trkpt>
      <trkpt lat="43.95958" lon="5.24803">
        <ele>497.14</ele>
        <time>2021-05-03T07:25:26Z</time>
      </trkpt>
      <trkpt lat="43.95959" lon="5.24803">
        <ele>497.14</ele>
        <time>2021-05-03T07:26:04Z</time>
      </trkpt>
      <trkpt lat="43.95959" lon="5.24804">
        <ele>497.14</ele>
        <time>2021-05-03T07:26:42Z</time>
      </trkpt>
      <trkpt lat="43.95961" lon="5.24802">
        <ele>497.14</ele>
        <time>2021-05-03T07:27:26Z</time>
      </trkpt>
      <trkpt lat="43.95963" lon="5.24798">
        <ele>497.14</ele>
        <time>2021-05-03T07:28:07Z</time>
      </trkpt>
      <trkpt lat="43.95963" lon="5.24798">
        <ele>497.14</ele>
        <time>2021-05-03T07:28:23Z</time>
      </trkpt>
      <trkpt lat="43.95963" lon="5.24799">
        <ele>497.14</ele>
        <time>2021-05-03T07:28:53Z</time>
      </trkpt>
      <trkpt lat="43.95966" lon="5.24797">
        <ele>497.14</ele>
        <time>2021-05-03T07:29:32Z</time>
      </trkpt>
      <trkpt lat="43.95966" lon="5.24794">
        <ele>497.14</ele>
        <time>2021-05-03T07:30:03Z</time>
      </trkpt>
      <trkpt lat="43.95962" lon="5.24798">
        <ele>497.14</ele>
        <time>2021-05-03T07:30:36Z</time>
      </trkpt>
      <trkpt lat="43.95963" lon="5.24795">
        <ele>497.14</ele>
        <time>2021-05-03T07:31:17Z</time>
      </trkpt>
      <trkpt lat="43.95963" lon="5.24797">
        <ele>497.14</ele>
        <time>2021-05-03T07:31:51Z</time>
      </trkpt>
      <trkpt lat="43.95962" lon="5.24798">
        <ele>497.14</ele>
        <time>2021-05-03T07:32:20Z</time>
      </trkpt>
      <trkpt lat="43.95961" lon="5.248">
        <ele>497.14</ele>
        <time>2021-05-03T07:32:48Z</time>
      </trkpt>
      <trkpt lat="43.9596" lon="5.24804">
        <ele>497.14</ele>
        <time>2021-05-03T07:33:20Z</time>
      </trkpt>
      <trkpt lat="43.95955" lon="5.24808">
        <ele>497.14</ele>
        <time>2021-05-03T07:33:51Z</time>
      </trkpt>
      <trkpt lat="43.95956" lon="5.24803">
        <ele>497.14</ele>
        <time>2021-05-03T07:34:17Z</time>
      </trkpt>
      <trkpt lat="43.9596" lon="5.248">
        <ele>497.14</ele>
        <time>2021-05-03T07:34:54Z</time>
      </trkpt>
      <trkpt lat="43.95959" lon="5.24801">
        <ele>497.14</ele>
        <time>2021-05-03T07:35:22Z</time>
      </trkpt>
      <trkpt lat="43.95963" lon="5.24802">
        <ele>497.14</ele>
        <time>2021-05-03T07:35:54Z</time>
      </trkpt>
      <trkpt lat="43.95963" lon="5.24803">
        <ele>497.14</ele>
        <time>2021-05-03T07:36:27Z</time>
      </trkpt>
      <trkpt lat="43.95961" lon="5.24801">
        <ele>497.14</ele>
        <time>2021-05-03T07:36:54Z</time>
      </trkpt>
      <trkpt lat="43.95957" lon="5.24804">
        <ele>497.14</ele>
        <time>2021-05-03T07:37:28Z</time>
      </trkpt>
      <trkpt lat="43.9596" lon="5.24801">
        <ele>497.14</ele>
        <time>2021-05-03T07:38:01Z</time>
      </trkpt>
      <trkpt lat="43.9596" lon="5.24797">
        <ele>497.14</ele>
        <time>2021-05-03T07:38:13Z</time>
      </trkpt>
      <trkpt lat="43.95955" lon="5.24777">
        <ele>497.14</ele>
        <time>2021-05-03T07:38:34Z</time>
      </trkpt>
      <trkpt lat="43.95957" lon="5.24752">
        <ele>496.18</ele>
        <time>2021-05-03T07:38:52Z</time>
      </trkpt>
      <trkpt lat="43.95965" lon="5.24745">
        <ele>496.66</ele>
        <time>2021-05-03T07:39:02Z</time>
      </trkpt>
      <trkpt lat="43.95992" lon="5.24741">
        <ele>496.66</ele>
        <time>2021-05-03T07:39:23Z</time>
      </trkpt>
      <trkpt lat="43.96014" lon="5.24743">
        <ele>497.14</ele>
        <time>2021-05-03T07:39:44Z</time>
      </trkpt>
      <trkpt lat="43.96037" lon="5.24747">
        <ele>497.62</ele>
        <time>2021-05-03T07:40:05Z</time>
      </trkpt>
      <trkpt lat="43.96057" lon="5.24749">
        <ele>498.1</ele>
        <time>2021-05-03T07:40:25Z</time>
      </trkpt>
      <trkpt lat="43.96059" lon="5.24749">
        <ele>498.58</ele>
        <time>2021-05-03T07:40:27Z</time>
      </trkpt>
      <trkpt lat="43.96062" lon="5.24749">
        <ele>498.58</ele>
        <time>2021-05-03T07:40:30Z</time>
      </trkpt>
      <trkpt lat="43.96063" lon="5.24749">
        <ele>498.58</ele>
        <time>2021-05-03T07:40:31Z</time>
      </trkpt>
      <trkpt lat="43.96083" lon="5.2475">
        <ele>499.54</ele>
        <time>2021-05-03T07:40:49Z</time>
      </trkpt>
      <trkpt lat="43.96106" lon="5.24749">
        <ele>500.5</ele>
        <time>2021-05-03T07:41:09Z</time>
      </trkpt>
      <trkpt lat="43.96121" lon="5.24754">
        <ele>501.46</ele>
        <time>2021-05-03T07:41:24Z</time>
      </trkpt>
      <trkpt lat="43.96132" lon="5.24763">
        <ele>502.43</ele>
        <time>2021-05-03T07:41:37Z</time>
      </trkpt>
      <trkpt lat="43.96134" lon="5.24764">
        <ele>502.43</ele>
        <time>2021-05-03T07:41:38Z</time>
      </trkpt>
      <trkpt lat="43.96135" lon="5.24764">
        <ele>502.43</ele>
        <time>2021-05-03T07:41:39Z</time>
      </trkpt>
      <trkpt lat="43.96145" lon="5.24775">
        <ele>503.87</ele>
        <time>2021-05-03T07:41:53Z</time>
      </trkpt>
      <trkpt lat="43.96152" lon="5.24781">
        <ele>504.35</ele>
        <time>2021-05-03T07:42:04Z</time>
      </trkpt>
      <trkpt lat="43.96153" lon="5.24781">
        <ele>504.35</ele>
        <time>2021-05-03T07:42:05Z</time>
      </trkpt>
      <trkpt lat="43.96162" lon="5.24785">
        <ele>503.87</ele>
        <time>2021-05-03T07:42:14Z</time>
      </trkpt>
      <trkpt lat="43.96182" lon="5.24787">
        <ele>504.83</ele>
        <time>2021-05-03T07:42:31Z</time>
      </trkpt>
      <trkpt lat="43.96198" lon="5.24791">
        <ele>505.79</ele>
        <time>2021-05-03T07:42:48Z</time>
      </trkpt>
      <trkpt lat="43.96207" lon="5.2479">
        <ele>506.27</ele>
        <time>2021-05-03T07:42:56Z</time>
      </trkpt>
      <trkpt lat="43.96225" lon="5.24793">
        <ele>506.75</ele>
        <time>2021-05-03T07:43:13Z</time>
      </trkpt>
      <trkpt lat="43.96245" lon="5.248">
        <ele>507.23</ele>
        <time>2021-05-03T07:43:31Z</time>
      </trkpt>
      <trkpt lat="43.96266" lon="5.24803">
        <ele>508.67</ele>
        <time>2021-05-03T07:43:52Z</time>
      </trkpt>
      <trkpt lat="43.96281" lon="5.24806">
        <ele>509.16</ele>
        <time>2021-05-03T07:44:10Z</time>
      </trkpt>
      <trkpt lat="43.96299" lon="5.24811">
        <ele>510.6</ele>
        <time>2021-05-03T07:44:28Z</time>
      </trkpt>
      <trkpt lat="43.96325" lon="5.24816">
        <ele>512.04</ele>
        <time>2021-05-03T07:44:52Z</time>
      </trkpt>
      <trkpt lat="43.96348" lon="5.24818">
        <ele>513.96</ele>
        <time>2021-05-03T07:45:17Z</time>
      </trkpt>
      <trkpt lat="43.96373" lon="5.24825">
        <ele>515.88</ele>
        <time>2021-05-03T07:45:43Z</time>
      </trkpt>
      <trkpt lat="43.96394" lon="5.24828">
        <ele>517.81</ele>
        <time>2021-05-03T07:46:01Z</time>
      </trkpt>
      <trkpt lat="43.9641" lon="5.24831">
        <ele>518.77</ele>
        <time>2021-05-03T07:46:17Z</time>
      </trkpt>
      <trkpt lat="43.96429" lon="5.24838">
        <ele>520.69</ele>
        <time>2021-05-03T07:46:41Z</time>
      </trkpt>
      <trkpt lat="43.96446" lon="5.24837">
        <ele>522.13</ele>
        <time>2021-05-03T07:46:56Z</time>
      </trkpt>
      <trkpt lat="43.96469" lon="5.24838">
        <ele>523.58</ele>
        <time>2021-05-03T07:47:19Z</time>
      </trkpt>
      <trkpt lat="43.96472" lon="5.24839">
        <ele>524.06</ele>
        <time>2021-05-03T07:47:22Z</time>
      </trkpt>
      <trkpt lat="43.96488" lon="5.24839">
        <ele>525.5</ele>
        <time>2021-05-03T07:47:37Z</time>
      </trkpt>
      <trkpt lat="43.96503" lon="5.24842">
        <ele>526.94</ele>
        <time>2021-05-03T07:47:54Z</time>
      </trkpt>
      <trkpt lat="43.96512" lon="5.24841">
        <ele>527.9</ele>
        <time>2021-05-03T07:48:17Z</time>
      </trkpt>
      <trkpt lat="43.96526" lon="5.24844">
        <ele>528.86</ele>
        <time>2021-05-03T07:48:35Z</time>
      </trkpt>
      <trkpt lat="43.96535" lon="5.24844">
        <ele>529.82</ele>
        <time>2021-05-03T07:48:55Z</time>
      </trkpt>
      <trkpt lat="43.96533" lon="5.24839">
        <ele>529.34</ele>
        <time>2021-05-03T07:49:28Z</time>
      </trkpt>
      <trkpt lat="43.96534" lon="5.24835">
        <ele>529.34</ele>
        <time>2021-05-03T07:50:01Z</time>
      </trkpt>
      <trkpt lat="43.96535" lon="5.24836">
        <ele>529.82</ele>
        <time>2021-05-03T07:50:31Z</time>
      </trkpt>
      <trkpt lat="43.96547" lon="5.24836">
        <ele>529.82</ele>
        <time>2021-05-03T07:50:52Z</time>
      </trkpt>
      <trkpt lat="43.96557" lon="5.24837">
        <ele>530.79</ele>
        <time>2021-05-03T07:51:06Z</time>
      </trkpt>
      <trkpt lat="43.96563" lon="5.24835">
        <ele>531.27</ele>
        <time>2021-05-03T07:51:12Z</time>
      </trkpt>
      <trkpt lat="43.96565" lon="5.24835">
        <ele>531.75</ele>
        <time>2021-05-03T07:51:14Z</time>
      </trkpt>
      <trkpt lat="43.96587" lon="5.24836">
        <ele>532.23</ele>
        <time>2021-05-03T07:51:32Z</time>
      </trkpt>
      <trkpt lat="43.96599" lon="5.24838">
        <ele>533.19</ele>
        <time>2021-05-03T07:51:44Z</time>
      </trkpt>
      <trkpt lat="43.96618" lon="5.24841">
        <ele>534.63</ele>
        <time>2021-05-03T07:52:04Z</time>
      </trkpt>
      <trkpt lat="43.96644" lon="5.24841">
        <ele>535.59</ele>
        <time>2021-05-03T07:52:27Z</time>
      </trkpt>
      <trkpt lat="43.96662" lon="5.24853">
        <ele>534.63</ele>
        <time>2021-05-03T07:52:47Z</time>
      </trkpt>
      <trkpt lat="43.96681" lon="5.2486">
        <ele>533.19</ele>
        <time>2021-05-03T07:53:04Z</time>
      </trkpt>
      <trkpt lat="43.96694" lon="5.24867">
        <ele>532.71</ele>
        <time>2021-05-03T07:53:17Z</time>
      </trkpt>
      <trkpt lat="43.96695" lon="5.24868">
        <ele>532.71</ele>
        <time>2021-05-03T07:53:18Z</time>
      </trkpt>
      <trkpt lat="43.9671" lon="5.24869">
        <ele>533.19</ele>
        <time>2021-05-03T07:53:33Z</time>
      </trkpt>
      <trkpt lat="43.96711" lon="5.24869">
        <ele>533.67</ele>
        <time>2021-05-03T07:53:34Z</time>
      </trkpt>
      <trkpt lat="43.96712" lon="5.24869">
        <ele>533.67</ele>
        <time>2021-05-03T07:53:35Z</time>
      </trkpt>
      <trkpt lat="43.96713" lon="5.24868">
        <ele>533.19</ele>
        <time>2021-05-03T07:53:36Z</time>
      </trkpt>
      <trkpt lat="43.96715" lon="5.24869">
        <ele>533.67</ele>
        <time>2021-05-03T07:53:37Z</time>
      </trkpt>
      <trkpt lat="43.96716" lon="5.24869">
        <ele>533.67</ele>
        <time>2021-05-03T07:53:38Z</time>
      </trkpt>
      <trkpt lat="43.96736" lon="5.24871">
        <ele>534.63</ele>
        <time>2021-05-03T07:53:56Z</time>
      </trkpt>
      <trkpt lat="43.96758" lon="5.24877">
        <ele>534.63</ele>
        <time>2021-05-03T07:54:16Z</time>
      </trkpt>
      <trkpt lat="43.96775" lon="5.24882">
        <ele>535.11</ele>
        <time>2021-05-03T07:54:31Z</time>
      </trkpt>
      <trkpt lat="43.96799" lon="5.24889">
        <ele>536.07</ele>
        <time>2021-05-03T07:54:55Z</time>
      </trkpt>
      <trkpt lat="43.96822" lon="5.24896">
        <ele>537.03</ele>
        <time>2021-05-03T07:55:17Z</time>
      </trkpt>
      <trkpt lat="43.96843" lon="5.24902">
        <ele>537.99</ele>
        <time>2021-05-03T07:55:38Z</time>
      </trkpt>
      <trkpt lat="43.96849" lon="5.24896">
        <ele>538.48</ele>
        <time>2021-05-03T07:55:51Z</time>
      </trkpt>
      <trkpt lat="43.96857" lon="5.24904">
        <ele>538.48</ele>
        <time>2021-05-03T07:56:06Z</time>
      </trkpt>
      <trkpt lat="43.96855" lon="5.24901">
        <ele>538.96</ele>
        <time>2021-05-03T07:56:12Z</time>
      </trkpt>
      <trkpt lat="43.96854" lon="5.249">
        <ele>538.96</ele>
        <time>2021-05-03T07:56:13Z</time>
      </trkpt>
      <trkpt lat="43.9685" lon="5.24896">
        <ele>537.99</ele>
        <time>2021-05-03T07:56:30Z</time>
      </trkpt>
      <trkpt lat="43.96849" lon="5.24898">
        <ele>538.48</ele>
        <time>2021-05-03T07:57:19Z</time>
      </trkpt>
      <trkpt lat="43.96849" lon="5.24899">
        <ele>538.48</ele>
        <time>2021-05-03T07:57:55Z</time>
      </trkpt>
      <trkpt lat="43.96852" lon="5.24893">
        <ele>538.48</ele>
        <time>2021-05-03T07:58:23Z</time>
      </trkpt>
      <trkpt lat="43.96859" lon="5.24881">
        <ele>537.99</ele>
        <time>2021-05-03T07:58:45Z</time>
      </trkpt>
      <trkpt lat="43.9686" lon="5.24878">
        <ele>537.99</ele>
        <time>2021-05-03T07:58:47Z</time>
      </trkpt>
      <trkpt lat="43.96863" lon="5.24871">
        <ele>538.48</ele>
        <time>2021-05-03T07:59:00Z</time>
      </trkpt>
      <trkpt lat="43.96863" lon="5.24885">
        <ele>538.48</ele>
        <time>2021-05-03T07:59:14Z</time>
      </trkpt>
      <trkpt lat="43.96865" lon="5.24886">
        <ele>538.48</ele>
        <time>2021-05-03T07:59:15Z</time>
      </trkpt>
      <trkpt lat="43.96866" lon="5.24887">
        <ele>538.48</ele>
        <time>2021-05-03T07:59:16Z</time>
      </trkpt>
      <trkpt lat="43.96865" lon="5.249">
        <ele>538.96</ele>
        <time>2021-05-03T07:59:29Z</time>
      </trkpt>
      <trkpt lat="43.96871" lon="5.24903">
        <ele>539.44</ele>
        <time>2021-05-03T07:59:45Z</time>
      </trkpt>
      <trkpt lat="43.96886" lon="5.2491">
        <ele>539.92</ele>
        <time>2021-05-03T08:00:04Z</time>
      </trkpt>
      <trkpt lat="43.96898" lon="5.24913">
        <ele>540.4</ele>
        <time>2021-05-03T08:00:23Z</time>
      </trkpt>
      <trkpt lat="43.96919" lon="5.2492">
        <ele>541.36</ele>
        <time>2021-05-03T08:00:46Z</time>
      </trkpt>
      <trkpt lat="43.96933" lon="5.24925">
        <ele>542.32</ele>
        <time>2021-05-03T08:01:02Z</time>
      </trkpt>
      <trkpt lat="43.96951" lon="5.24931">
        <ele>543.76</ele>
        <time>2021-05-03T08:01:23Z</time>
      </trkpt>
      <trkpt lat="43.96973" lon="5.24942">
        <ele>544.24</ele>
        <time>2021-05-03T08:01:43Z</time>
      </trkpt>
      <trkpt lat="43.96996" lon="5.24946">
        <ele>545.69</ele>
        <time>2021-05-03T08:02:06Z</time>
      </trkpt>
      <trkpt lat="43.9701" lon="5.24948">
        <ele>546.17</ele>
        <time>2021-05-03T08:02:21Z</time>
      </trkpt>
      <trkpt lat="43.97024" lon="5.24948">
        <ele>546.65</ele>
        <time>2021-05-03T08:02:34Z</time>
      </trkpt>
      <trkpt lat="43.97037" lon="5.24949">
        <ele>547.61</ele>
        <time>2021-05-03T08:02:52Z</time>
      </trkpt>
      <trkpt lat="43.97054" lon="5.24953">
        <ele>548.09</ele>
        <time>2021-05-03T08:03:07Z</time>
      </trkpt>
      <trkpt lat="43.97066" lon="5.24958">
        <ele>548.57</ele>
        <time>2021-05-03T08:03:23Z</time>
      </trkpt>
      <trkpt lat="43.97082" lon="5.24962">
        <ele>549.05</ele>
        <time>2021-05-03T08:03:43Z</time>
      </trkpt>
      <trkpt lat="43.97102" lon="5.24961">
        <ele>550.49</ele>
        <time>2021-05-03T08:04:08Z</time>
      </trkpt>
      <trkpt lat="43.97122" lon="5.24962">
        <ele>551.45</ele>
        <time>2021-05-03T08:04:28Z</time>
      </trkpt>
      <trkpt lat="43.97136" lon="5.24964">
        <ele>552.9</ele>
        <time>2021-05-03T08:04:43Z</time>
      </trkpt>
      <trkpt lat="43.97147" lon="5.24975">
        <ele>553.38</ele>
        <time>2021-05-03T08:05:00Z</time>
      </trkpt>
      <trkpt lat="43.97166" lon="5.24984">
        <ele>553.86</ele>
        <time>2021-05-03T08:05:18Z</time>
      </trkpt>
      <trkpt lat="43.97182" lon="5.2499">
        <ele>554.82</ele>
        <time>2021-05-03T08:05:34Z</time>
      </trkpt>
      <trkpt lat="43.97186" lon="5.2499">
        <ele>554.82</ele>
        <time>2021-05-03T08:05:38Z</time>
      </trkpt>
      <trkpt lat="43.97195" lon="5.24992">
        <ele>554.82</ele>
        <time>2021-05-03T08:05:49Z</time>
      </trkpt>
      <trkpt lat="43.9721" lon="5.24997">
        <ele>555.3</ele>
        <time>2021-05-03T08:06:03Z</time>
      </trkpt>
      <trkpt lat="43.97223" lon="5.24996">
        <ele>555.78</ele>
        <time>2021-05-03T08:06:17Z</time>
      </trkpt>
      <trkpt lat="43.97237" lon="5.25001">
        <ele>557.22</ele>
        <time>2021-05-03T08:06:31Z</time>
      </trkpt>
      <trkpt lat="43.97252" lon="5.25004">
        <ele>557.7</ele>
        <time>2021-05-03T08:06:47Z</time>
      </trkpt>
      <trkpt lat="43.97256" lon="5.25005">
        <ele>557.7</ele>
        <time>2021-05-03T08:06:51Z</time>
      </trkpt>
      <trkpt lat="43.97261" lon="5.25005">
        <ele>557.7</ele>
        <time>2021-05-03T08:06:56Z</time>
      </trkpt>
      <trkpt lat="43.97273" lon="5.25012">
        <ele>558.66</ele>
        <time>2021-05-03T08:07:09Z</time>
      </trkpt>
      <trkpt lat="43.97289" lon="5.25024">
        <ele>558.66</ele>
        <time>2021-05-03T08:07:24Z</time>
      </trkpt>
      <trkpt lat="43.973" lon="5.25035">
        <ele>557.7</ele>
        <time>2021-05-03T08:07:39Z</time>
      </trkpt>
      <trkpt lat="43.97317" lon="5.25055">
        <ele>555.78</ele>
        <time>2021-05-03T08:08:03Z</time>
      </trkpt>
      <trkpt lat="43.97318" lon="5.25056">
        <ele>555.78</ele>
        <time>2021-05-03T08:08:04Z</time>
      </trkpt>
      <trkpt lat="43.97322" lon="5.25058">
        <ele>555.78</ele>
        <time>2021-05-03T08:08:07Z</time>
      </trkpt>
      <trkpt lat="43.97321" lon="5.25073">
        <ele>556.26</ele>
        <time>2021-05-03T08:08:27Z</time>
      </trkpt>
      <trkpt lat="43.9732" lon="5.25075">
        <ele>554.82</ele>
        <time>2021-05-03T08:08:59Z</time>
      </trkpt>
      <trkpt lat="43.97324" lon="5.25072">
        <ele>555.3</ele>
        <time>2021-05-03T08:09:22Z</time>
      </trkpt>
      <trkpt lat="43.97319" lon="5.25073">
        <ele>555.78</ele>
        <time>2021-05-03T08:09:48Z</time>
      </trkpt>
      <trkpt lat="43.97299" lon="5.25075">
        <ele>555.78</ele>
        <time>2021-05-03T08:10:11Z</time>
      </trkpt>
      <trkpt lat="43.97288" lon="5.25077">
        <ele>556.26</ele>
        <time>2021-05-03T08:10:31Z</time>
      </trkpt>
      <trkpt lat="43.97291" lon="5.25079">
        <ele>555.78</ele>
        <time>2021-05-03T08:11:00Z</time>
      </trkpt>
      <trkpt lat="43.97292" lon="5.2508">
        <ele>556.26</ele>
        <time>2021-05-03T08:11:25Z</time>
      </trkpt>
      <trkpt lat="43.97286" lon="5.2508">
        <ele>556.26</ele>
        <time>2021-05-03T08:11:52Z</time>
      </trkpt>
      <trkpt lat="43.97288" lon="5.25099">
        <ele>556.26</ele>
        <time>2021-05-03T08:12:07Z</time>
      </trkpt>
      <trkpt lat="43.97288" lon="5.25125">
        <ele>557.22</ele>
        <time>2021-05-03T08:12:27Z</time>
      </trkpt>
      <trkpt lat="43.97288" lon="5.25127">
        <ele>557.22</ele>
        <time>2021-05-03T08:12:29Z</time>
      </trkpt>
      <trkpt lat="43.97288" lon="5.25129">
        <ele>557.22</ele>
        <time>2021-05-03T08:12:30Z</time>
      </trkpt>
      <trkpt lat="43.97284" lon="5.25146">
        <ele>557.7</ele>
        <time>2021-05-03T08:12:44Z</time>
      </trkpt>
      <trkpt lat="43.97279" lon="5.25167">
        <ele>558.18</ele>
        <time>2021-05-03T08:13:02Z</time>
      </trkpt>
      <trkpt lat="43.97274" lon="5.25192">
        <ele>559.14</ele>
        <time>2021-05-03T08:13:21Z</time>
      </trkpt>
      <trkpt lat="43.97272" lon="5.25204">
        <ele>560.11</ele>
        <time>2021-05-03T08:13:31Z</time>
      </trkpt>
      <trkpt lat="43.97278" lon="5.2522">
        <ele>561.55</ele>
        <time>2021-05-03T08:13:47Z</time>
      </trkpt>
      <trkpt lat="43.97281" lon="5.25221">
        <ele>561.55</ele>
        <time>2021-05-03T08:13:50Z</time>
      </trkpt>
      <trkpt lat="43.97288" lon="5.25221">
        <ele>562.03</ele>
        <time>2021-05-03T08:13:56Z</time>
      </trkpt>
      <trkpt lat="43.97305" lon="5.25216">
        <ele>563.95</ele>
        <time>2021-05-03T08:14:17Z</time>
      </trkpt>
      <trkpt lat="43.97316" lon="5.25216">
        <ele>565.39</ele>
        <time>2021-05-03T08:14:30Z</time>
      </trkpt>
      <trkpt lat="43.97331" lon="5.25223">
        <ele>566.83</ele>
        <time>2021-05-03T08:14:50Z</time>
      </trkpt>
      <trkpt lat="43.97342" lon="5.25231">
        <ele>567.8</ele>
        <time>2021-05-03T08:15:02Z</time>
      </trkpt>
      <trkpt lat="43.97356" lon="5.25237">
        <ele>569.24</ele>
        <time>2021-05-03T08:15:18Z</time>
      </trkpt>
      <trkpt lat="43.97375" lon="5.25251">
        <ele>571.64</ele>
        <time>2021-05-03T08:15:41Z</time>
      </trkpt>
      <trkpt lat="43.9739" lon="5.2526">
        <ele>573.08</ele>
        <time>2021-05-03T08:16:04Z</time>
      </trkpt>
      <trkpt lat="43.974" lon="5.25265">
        <ele>574.04</ele>
        <time>2021-05-03T08:16:16Z</time>
      </trkpt>
      <trkpt lat="43.9742" lon="5.25281">
        <ele>575.97</ele>
        <time>2021-05-03T08:16:39Z</time>
      </trkpt>
      <trkpt lat="43.97438" lon="5.25288">
        <ele>577.41</ele>
        <time>2021-05-03T08:16:59Z</time>
      </trkpt>
      <trkpt lat="43.97458" lon="5.253">
        <ele>580.29</ele>
        <time>2021-05-03T08:17:23Z</time>
      </trkpt>
      <trkpt lat="43.97476" lon="5.25311">
        <ele>582.22</ele>
        <time>2021-05-03T08:17:44Z</time>
      </trkpt>
      <trkpt lat="43.97493" lon="5.25315">
        <ele>583.18</ele>
        <time>2021-05-03T08:18:01Z</time>
      </trkpt>
      <trkpt lat="43.9751" lon="5.25317">
        <ele>584.62</ele>
        <time>2021-05-03T08:18:19Z</time>
      </trkpt>
      <trkpt lat="43.97519" lon="5.25318">
        <ele>585.58</ele>
        <time>2021-05-03T08:18:29Z</time>
      </trkpt>
      <trkpt lat="43.97535" lon="5.25322">
        <ele>587.02</ele>
        <time>2021-05-03T08:18:47Z</time>
      </trkpt>
      <trkpt lat="43.9753" lon="5.25322">
        <ele>587.5</ele>
        <time>2021-05-03T08:18:58Z</time>
      </trkpt>
      <trkpt lat="43.97525" lon="5.25321">
        <ele>587.02</ele>
        <time>2021-05-03T08:19:11Z</time>
      </trkpt>
      <trkpt lat="43.97523" lon="5.25327">
        <ele>586.06</ele>
        <time>2021-05-03T08:19:48Z</time>
      </trkpt>
      <trkpt lat="43.97523" lon="5.2533">
        <ele>585.58</ele>
        <time>2021-05-03T08:20:25Z</time>
      </trkpt>
      <trkpt lat="43.97523" lon="5.25328">
        <ele>585.58</ele>
        <time>2021-05-03T08:20:55Z</time>
      </trkpt>
      <trkpt lat="43.97523" lon="5.25329">
        <ele>585.58</ele>
        <time>2021-05-03T08:21:28Z</time>
      </trkpt>
      <trkpt lat="43.97524" lon="5.25324">
        <ele>585.58</ele>
        <time>2021-05-03T08:21:58Z</time>
      </trkpt>
      <trkpt lat="43.97526" lon="5.25323">
        <ele>585.58</ele>
        <time>2021-05-03T08:22:34Z</time>
      </trkpt>
      <trkpt lat="43.97524" lon="5.25327">
        <ele>585.58</ele>
        <time>2021-05-03T08:23:08Z</time>
      </trkpt>
      <trkpt lat="43.97524" lon="5.25328">
        <ele>585.58</ele>
        <time>2021-05-03T08:23:43Z</time>
      </trkpt>
      <trkpt lat="43.97525" lon="5.25327">
        <ele>585.58</ele>
        <time>2021-05-03T08:24:14Z</time>
      </trkpt>
      <trkpt lat="43.97527" lon="5.25324">
        <ele>585.58</ele>
        <time>2021-05-03T08:24:45Z</time>
      </trkpt>
      <trkpt lat="43.9753" lon="5.25325">
        <ele>585.58</ele>
        <time>2021-05-03T08:25:16Z</time>
      </trkpt>
      <trkpt lat="43.97527" lon="5.25323">
        <ele>585.58</ele>
        <time>2021-05-03T08:25:47Z</time>
      </trkpt>
      <trkpt lat="43.9753" lon="5.25327">
        <ele>585.58</ele>
        <time>2021-05-03T08:26:17Z</time>
      </trkpt>
      <trkpt lat="43.97529" lon="5.25326">
        <ele>585.58</ele>
        <time>2021-05-03T08:26:47Z</time>
      </trkpt>
      <trkpt lat="43.97529" lon="5.25327">
        <ele>585.58</ele>
        <time>2021-05-03T08:27:20Z</time>
      </trkpt>
      <trkpt lat="43.97529" lon="5.25328">
        <ele>585.58</ele>
        <time>2021-05-03T08:27:48Z</time>
      </trkpt>
      <trkpt lat="43.97526" lon="5.25331">
        <ele>585.58</ele>
        <time>2021-05-03T08:28:17Z</time>
      </trkpt>
      <trkpt lat="43.97528" lon="5.2533">
        <ele>585.58</ele>
        <time>2021-05-03T08:28:48Z</time>
      </trkpt>
      <trkpt lat="43.97527" lon="5.25329">
        <ele>585.58</ele>
        <time>2021-05-03T08:29:20Z</time>
      </trkpt>
      <trkpt lat="43.97527" lon="5.25326">
        <ele>585.58</ele>
        <time>2021-05-03T08:29:52Z</time>
      </trkpt>
      <trkpt lat="43.97526" lon="5.25326">
        <ele>585.58</ele>
        <time>2021-05-03T08:30:27Z</time>
      </trkpt>
      <trkpt lat="43.97523" lon="5.25327">
        <ele>585.58</ele>
        <time>2021-05-03T08:31:00Z</time>
      </trkpt>
      <trkpt lat="43.97525" lon="5.25328">
        <ele>585.58</ele>
        <time>2021-05-03T08:31:28Z</time>
      </trkpt>
      <trkpt lat="43.97524" lon="5.25327">
        <ele>585.58</ele>
        <time>2021-05-03T08:31:56Z</time>
      </trkpt>
      <trkpt lat="43.97528" lon="5.25329">
        <ele>585.58</ele>
        <time>2021-05-03T08:32:26Z</time>
      </trkpt>
      <trkpt lat="43.9754" lon="5.25326">
        <ele>585.58</ele>
        <time>2021-05-03T08:32:41Z</time>
      </trkpt>
      <trkpt lat="43.97543" lon="5.25323">
        <ele>585.58</ele>
        <time>2021-05-03T08:33:03Z</time>
      </trkpt>
      <trkpt lat="43.97555" lon="5.25326">
        <ele>585.58</ele>
        <time>2021-05-03T08:33:23Z</time>
      </trkpt>
      <trkpt lat="43.9757" lon="5.25327">
        <ele>587.02</ele>
        <time>2021-05-03T08:33:42Z</time>
      </trkpt>
      <trkpt lat="43.97572" lon="5.25327">
        <ele>587.02</ele>
        <time>2021-05-03T08:33:43Z</time>
      </trkpt>
      <trkpt lat="43.97588" lon="5.25333">
        <ele>587.98</ele>
        <time>2021-05-03T08:34:00Z</time>
      </trkpt>
      <trkpt lat="43.976" lon="5.25337">
        <ele>587.98</ele>
        <time>2021-05-03T08:34:11Z</time>
      </trkpt>
      <trkpt lat="43.97601" lon="5.25337">
        <ele>587.98</ele>
        <time>2021-05-03T08:34:12Z</time>
      </trkpt>
      <trkpt lat="43.97619" lon="5.25336">
        <ele>587.02</ele>
        <time>2021-05-03T08:34:26Z</time>
      </trkpt>
      <trkpt lat="43.97631" lon="5.25338">
        <ele>585.58</ele>
        <time>2021-05-03T08:34:39Z</time>
      </trkpt>
      <trkpt lat="43.97636" lon="5.2534">
        <ele>585.1</ele>
        <time>2021-05-03T08:34:44Z</time>
      </trkpt>
      <trkpt lat="43.97652" lon="5.25346">
        <ele>584.14</ele>
        <time>2021-05-03T08:35:01Z</time>
      </trkpt>
      <trkpt lat="43.97672" lon="5.25358">
        <ele>584.14</ele>
        <time>2021-05-03T08:35:18Z</time>
      </trkpt>
      <trkpt lat="43.9769" lon="5.25364">
        <ele>584.62</ele>
        <time>2021-05-03T08:35:34Z</time>
      </trkpt>
      <trkpt lat="43.97704" lon="5.25368">
        <ele>584.62</ele>
        <time>2021-05-03T08:35:47Z</time>
      </trkpt>
      <trkpt lat="43.97718" lon="5.25371">
        <ele>585.58</ele>
        <time>2021-05-03T08:36:01Z</time>
      </trkpt>
      <trkpt lat="43.9773" lon="5.25372">
        <ele>586.54</ele>
        <time>2021-05-03T08:36:12Z</time>
      </trkpt>
      <trkpt lat="43.97752" lon="5.25369">
        <ele>587.98</ele>
        <time>2021-05-03T08:36:32Z</time>
      </trkpt>
      <trkpt lat="43.97773" lon="5.25369">
        <ele>588.46</ele>
        <time>2021-05-03T08:36:50Z</time>
      </trkpt>
      <trkpt lat="43.9779" lon="5.25375">
        <ele>588.46</ele>
        <time>2021-05-03T08:37:07Z</time>
      </trkpt>
      <trkpt lat="43.978" lon="5.2538">
        <ele>587.98</ele>
        <time>2021-05-03T08:37:22Z</time>
      </trkpt>
      <trkpt lat="43.97801" lon="5.2538">
        <ele>587.98</ele>
        <time>2021-05-03T08:37:23Z</time>
      </trkpt>
      <trkpt lat="43.97802" lon="5.2538">
        <ele>587.98</ele>
        <time>2021-05-03T08:37:24Z</time>
      </trkpt>
      <trkpt lat="43.97803" lon="5.25381">
        <ele>587.98</ele>
        <time>2021-05-03T08:37:25Z</time>
      </trkpt>
      <trkpt lat="43.97804" lon="5.25382">
        <ele>587.98</ele>
        <time>2021-05-03T08:37:26Z</time>
      </trkpt>
      <trkpt lat="43.97805" lon="5.25383">
        <ele>587.98</ele>
        <time>2021-05-03T08:37:27Z</time>
      </trkpt>
      <trkpt lat="43.97821" lon="5.25395">
        <ele>588.95</ele>
        <time>2021-05-03T08:37:44Z</time>
      </trkpt>
      <trkpt lat="43.97832" lon="5.25403">
        <ele>588.95</ele>
        <time>2021-05-03T08:37:55Z</time>
      </trkpt>
      <trkpt lat="43.97838" lon="5.25409">
        <ele>588.46</ele>
        <time>2021-05-03T08:38:04Z</time>
      </trkpt>
      <trkpt lat="43.97849" lon="5.25418">
        <ele>589.43</ele>
        <time>2021-05-03T08:38:16Z</time>
      </trkpt>
      <trkpt lat="43.97863" lon="5.25423">
        <ele>590.39</ele>
        <time>2021-05-03T08:38:28Z</time>
      </trkpt>
      <trkpt lat="43.97881" lon="5.25431">
        <ele>590.39</ele>
        <time>2021-05-03T08:38:47Z</time>
      </trkpt>
      <trkpt lat="43.97898" lon="5.25444">
        <ele>590.87</ele>
        <time>2021-05-03T08:39:06Z</time>
      </trkpt>
      <trkpt lat="43.97913" lon="5.25456">
        <ele>592.31</ele>
        <time>2021-05-03T08:39:25Z</time>
      </trkpt>
      <trkpt lat="43.97924" lon="5.25467">
        <ele>592.79</ele>
        <time>2021-05-03T08:39:38Z</time>
      </trkpt>
      <trkpt lat="43.97925" lon="5.25468">
        <ele>593.27</ele>
        <time>2021-05-03T08:39:39Z</time>
      </trkpt>
      <trkpt lat="43.97941" lon="5.25476">
        <ele>593.75</ele>
        <time>2021-05-03T08:39:56Z</time>
      </trkpt>
      <trkpt lat="43.97956" lon="5.25489">
        <ele>594.71</ele>
        <time>2021-05-03T08:40:13Z</time>
      </trkpt>
      <trkpt lat="43.97969" lon="5.25501">
        <ele>595.19</ele>
        <time>2021-05-03T08:40:30Z</time>
      </trkpt>
      <trkpt lat="43.97981" lon="5.25513">
        <ele>596.15</ele>
        <time>2021-05-03T08:40:46Z</time>
      </trkpt>
      <trkpt lat="43.9799" lon="5.25523">
        <ele>596.64</ele>
        <time>2021-05-03T08:40:58Z</time>
      </trkpt>
      <trkpt lat="43.97991" lon="5.25524">
        <ele>597.12</ele>
        <time>2021-05-03T08:40:59Z</time>
      </trkpt>
      <trkpt lat="43.97992" lon="5.25525">
        <ele>597.12</ele>
        <time>2021-05-03T08:41:00Z</time>
      </trkpt>
      <trkpt lat="43.97993" lon="5.25527">
        <ele>597.12</ele>
        <time>2021-05-03T08:41:01Z</time>
      </trkpt>
      <trkpt lat="43.97993" lon="5.25528">
        <ele>597.12</ele>
        <time>2021-05-03T08:41:02Z</time>
      </trkpt>
      <trkpt lat="43.98008" lon="5.25546">
        <ele>598.56</ele>
        <time>2021-05-03T08:41:19Z</time>
      </trkpt>
      <trkpt lat="43.98013" lon="5.2555">
        <ele>599.04</ele>
        <time>2021-05-03T08:41:36Z</time>
      </trkpt>
      <trkpt lat="43.9801" lon="5.25549">
        <ele>599.04</ele>
        <time>2021-05-03T08:42:04Z</time>
      </trkpt>
      <trkpt lat="43.98012" lon="5.25557">
        <ele>600</ele>
        <time>2021-05-03T08:42:28Z</time>
      </trkpt>
      <trkpt lat="43.98012" lon="5.25566">
        <ele>603.36</ele>
        <time>2021-05-03T08:42:41Z</time>
      </trkpt>
      <trkpt lat="43.98013" lon="5.25574">
        <ele>606.25</ele>
        <time>2021-05-03T08:42:57Z</time>
      </trkpt>
      <trkpt lat="43.98014" lon="5.25585">
        <ele>609.13</ele>
        <time>2021-05-03T08:43:15Z</time>
      </trkpt>
      <trkpt lat="43.98009" lon="5.25597">
        <ele>612.02</ele>
        <time>2021-05-03T08:43:32Z</time>
      </trkpt>
      <trkpt lat="43.98012" lon="5.25602">
        <ele>615.38</ele>
        <time>2021-05-03T08:43:51Z</time>
      </trkpt>
      <trkpt lat="43.98012" lon="5.25608">
        <ele>618.26</ele>
        <time>2021-05-03T08:44:19Z</time>
      </trkpt>
      <trkpt lat="43.98009" lon="5.25612">
        <ele>621.63</ele>
        <time>2021-05-03T08:44:33Z</time>
      </trkpt>
      <trkpt lat="43.98021" lon="5.25626">
        <ele>623.07</ele>
        <time>2021-05-03T08:46:18Z</time>
      </trkpt>
      <trkpt lat="43.98025" lon="5.25633">
        <ele>623.07</ele>
        <time>2021-05-03T08:48:54Z</time>
      </trkpt>
      <trkpt lat="43.98028" lon="5.25642">
        <ele>623.07</ele>
        <time>2021-05-03T08:49:23Z</time>
      </trkpt>
      <trkpt lat="43.98029" lon="5.25652">
        <ele>623.07</ele>
        <time>2021-05-03T08:49:52Z</time>
      </trkpt>
      <trkpt lat="43.98032" lon="5.25654">
        <ele>623.07</ele>
        <time>2021-05-03T08:49:59Z</time>
      </trkpt>
      <trkpt lat="43.98035" lon="5.25653">
        <ele>626.44</ele>
        <time>2021-05-03T08:50:05Z</time>
      </trkpt>
      <trkpt lat="43.98034" lon="5.25655">
        <ele>625.96</ele>
        <time>2021-05-03T08:50:46Z</time>
      </trkpt>
      <trkpt lat="43.98035" lon="5.25643">
        <ele>625.47</ele>
        <time>2021-05-03T08:51:40Z</time>
      </trkpt>
      <trkpt lat="43.98034" lon="5.25638">
        <ele>625.96</ele>
        <time>2021-05-03T08:52:34Z</time>
      </trkpt>
      <trkpt lat="43.98031" lon="5.25646">
        <ele>625.96</ele>
        <time>2021-05-03T08:53:27Z</time>
      </trkpt>
      <trkpt lat="43.98028" lon="5.25656">
        <ele>625.96</ele>
        <time>2021-05-03T08:54:01Z</time>
      </trkpt>
      <trkpt lat="43.98032" lon="5.25655">
        <ele>625.47</ele>
        <time>2021-05-03T08:55:33Z</time>
      </trkpt>
      <trkpt lat="43.98032" lon="5.25658">
        <ele>625.47</ele>
        <time>2021-05-03T08:55:35Z</time>
      </trkpt>
      <trkpt lat="43.98033" lon="5.2566">
        <ele>624.99</ele>
        <time>2021-05-03T08:55:37Z</time>
      </trkpt>
      <trkpt lat="43.98036" lon="5.2567">
        <ele>626.92</ele>
        <time>2021-05-03T08:55:45Z</time>
      </trkpt>
      <trkpt lat="43.98051" lon="5.25688">
        <ele>625.47</ele>
        <time>2021-05-03T08:56:59Z</time>
      </trkpt>
      <trkpt lat="43.98073" lon="5.25686">
        <ele>627.4</ele>
        <time>2021-05-03T08:57:54Z</time>
      </trkpt>
      <trkpt lat="43.98067" lon="5.25682">
        <ele>626.92</ele>
        <time>2021-05-03T08:59:03Z</time>
      </trkpt>
      <trkpt lat="43.9806" lon="5.25686">
        <ele>626.92</ele>
        <time>2021-05-03T08:59:16Z</time>
      </trkpt>
      <trkpt lat="43.98063" lon="5.25688">
        <ele>626.92</ele>
        <time>2021-05-03T08:59:45Z</time>
      </trkpt>
      <trkpt lat="43.98067" lon="5.25687">
        <ele>626.92</ele>
        <time>2021-05-03T08:59:47Z</time>
      </trkpt>
      <trkpt lat="43.98067" lon="5.25689">
        <ele>626.92</ele>
        <time>2021-05-03T08:59:51Z</time>
      </trkpt>
      <trkpt lat="43.98068" lon="5.25699">
        <ele>626.44</ele>
        <time>2021-05-03T09:00:03Z</time>
      </trkpt>
      <trkpt lat="43.98065" lon="5.25702">
        <ele>626.92</ele>
        <time>2021-05-03T09:00:08Z</time>
      </trkpt>
      <trkpt lat="43.98055" lon="5.25708">
        <ele>627.88</ele>
        <time>2021-05-03T09:00:15Z</time>
      </trkpt>
      <trkpt lat="43.98056" lon="5.2572">
        <ele>627.4</ele>
        <time>2021-05-03T09:00:38Z</time>
      </trkpt>
      <trkpt lat="43.98068" lon="5.25724">
        <ele>627.88</ele>
        <time>2021-05-03T09:01:08Z</time>
      </trkpt>
      <trkpt lat="43.98076" lon="5.25735">
        <ele>628.84</ele>
        <time>2021-05-03T09:01:39Z</time>
      </trkpt>
      <trkpt lat="43.9808" lon="5.25731">
        <ele>628.36</ele>
        <time>2021-05-03T09:02:17Z</time>
      </trkpt>
      <trkpt lat="43.9808" lon="5.25731">
        <ele>628.36</ele>
        <time>2021-05-03T09:02:45Z</time>
      </trkpt>
      <trkpt lat="43.98073" lon="5.25735">
        <ele>628.36</ele>
        <time>2021-05-03T09:03:17Z</time>
      </trkpt>
      <trkpt lat="43.98072" lon="5.25736">
        <ele>628.84</ele>
        <time>2021-05-03T09:03:40Z</time>
      </trkpt>
      <trkpt lat="43.98076" lon="5.25735">
        <ele>628.84</ele>
        <time>2021-05-03T09:03:59Z</time>
      </trkpt>
      <trkpt lat="43.98079" lon="5.25735">
        <ele>628.84</ele>
        <time>2021-05-03T09:04:01Z</time>
      </trkpt>
      <trkpt lat="43.98084" lon="5.2574">
        <ele>629.8</ele>
        <time>2021-05-03T09:04:15Z</time>
      </trkpt>
      <trkpt lat="43.98092" lon="5.25748">
        <ele>629.32</ele>
        <time>2021-05-03T09:05:00Z</time>
      </trkpt>
      <trkpt lat="43.98091" lon="5.25744">
        <ele>628.36</ele>
        <time>2021-05-03T09:05:46Z</time>
      </trkpt>
      <trkpt lat="43.98091" lon="5.2575">
        <ele>627.88</ele>
        <time>2021-05-03T09:06:03Z</time>
      </trkpt>
      <trkpt lat="43.9809" lon="5.25756">
        <ele>630.76</ele>
        <time>2021-05-03T09:06:23Z</time>
      </trkpt>
      <trkpt lat="43.98089" lon="5.25757">
        <ele>630.76</ele>
        <time>2021-05-03T09:06:26Z</time>
      </trkpt>
      <trkpt lat="43.98086" lon="5.25763">
        <ele>631.72</ele>
        <time>2021-05-03T09:06:51Z</time>
      </trkpt>
      <trkpt lat="43.98089" lon="5.2577">
        <ele>631.24</ele>
        <time>2021-05-03T09:07:05Z</time>
      </trkpt>
      <trkpt lat="43.981" lon="5.25776">
        <ele>628.84</ele>
        <time>2021-05-03T09:07:28Z</time>
      </trkpt>
      <trkpt lat="43.98101" lon="5.25777">
        <ele>628.84</ele>
        <time>2021-05-03T09:07:51Z</time>
      </trkpt>
      <trkpt lat="43.98106" lon="5.25776">
        <ele>628.84</ele>
        <time>2021-05-03T09:08:34Z</time>
      </trkpt>
      <trkpt lat="43.98108" lon="5.25776">
        <ele>628.84</ele>
        <time>2021-05-03T09:08:49Z</time>
      </trkpt>
      <trkpt lat="43.98113" lon="5.25788">
        <ele>627.88</ele>
        <time>2021-05-03T09:09:11Z</time>
      </trkpt>
      <trkpt lat="43.98114" lon="5.25788">
        <ele>627.88</ele>
        <time>2021-05-03T09:09:12Z</time>
      </trkpt>
      <trkpt lat="43.98119" lon="5.2579">
        <ele>626.92</ele>
        <time>2021-05-03T09:09:19Z</time>
      </trkpt>
      <trkpt lat="43.98121" lon="5.25795">
        <ele>626.44</ele>
        <time>2021-05-03T09:09:28Z</time>
      </trkpt>
      <trkpt lat="43.98126" lon="5.25805">
        <ele>629.32</ele>
        <time>2021-05-03T09:09:43Z</time>
      </trkpt>
      <trkpt lat="43.98133" lon="5.2581">
        <ele>631.72</ele>
        <time>2021-05-03T09:09:56Z</time>
      </trkpt>
      <trkpt lat="43.98134" lon="5.25816">
        <ele>634.61</ele>
        <time>2021-05-03T09:10:08Z</time>
      </trkpt>
      <trkpt lat="43.98136" lon="5.25825">
        <ele>637.01</ele>
        <time>2021-05-03T09:10:23Z</time>
      </trkpt>
      <trkpt lat="43.98133" lon="5.2583">
        <ele>639.41</ele>
        <time>2021-05-03T09:10:40Z</time>
      </trkpt>
      <trkpt lat="43.98129" lon="5.25832">
        <ele>642.3</ele>
        <time>2021-05-03T09:10:57Z</time>
      </trkpt>
      <trkpt lat="43.98129" lon="5.25844">
        <ele>644.22</ele>
        <time>2021-05-03T09:11:20Z</time>
      </trkpt>
      <trkpt lat="43.98129" lon="5.25855">
        <ele>645.66</ele>
        <time>2021-05-03T09:11:38Z</time>
      </trkpt>
      <trkpt lat="43.98129" lon="5.25859">
        <ele>646.62</ele>
        <time>2021-05-03T09:11:59Z</time>
      </trkpt>
      <trkpt lat="43.98127" lon="5.25862">
        <ele>647.1</ele>
        <time>2021-05-03T09:12:20Z</time>
      </trkpt>
      <trkpt lat="43.98125" lon="5.25861">
        <ele>647.1</ele>
        <time>2021-05-03T09:12:50Z</time>
      </trkpt>
      <trkpt lat="43.98124" lon="5.25865">
        <ele>646.62</ele>
        <time>2021-05-03T09:13:20Z</time>
      </trkpt>
      <trkpt lat="43.98125" lon="5.25863">
        <ele>646.62</ele>
        <time>2021-05-03T09:13:53Z</time>
      </trkpt>
      <trkpt lat="43.98123" lon="5.25863">
        <ele>646.62</ele>
        <time>2021-05-03T09:14:17Z</time>
      </trkpt>
      <trkpt lat="43.98124" lon="5.25864">
        <ele>646.62</ele>
        <time>2021-05-03T09:14:49Z</time>
      </trkpt>
      <trkpt lat="43.98122" lon="5.25866">
        <ele>643.26</ele>
        <time>2021-05-03T09:15:08Z</time>
      </trkpt>
      <trkpt lat="43.98121" lon="5.25866">
        <ele>644.7</ele>
        <time>2021-05-03T09:15:09Z</time>
      </trkpt>
      <trkpt lat="43.98119" lon="5.25867">
        <ele>645.66</ele>
        <time>2021-05-03T09:15:11Z</time>
      </trkpt>
      <trkpt lat="43.98117" lon="5.25868">
        <ele>643.26</ele>
        <time>2021-05-03T09:15:14Z</time>
      </trkpt>
      <trkpt lat="43.98115" lon="5.2587">
        <ele>645.18</ele>
        <time>2021-05-03T09:15:17Z</time>
      </trkpt>
      <trkpt lat="43.98116" lon="5.25873">
        <ele>649.99</ele>
        <time>2021-05-03T09:15:21Z</time>
      </trkpt>
      <trkpt lat="43.98117" lon="5.25875">
        <ele>650.95</ele>
        <time>2021-05-03T09:15:23Z</time>
      </trkpt>
      <trkpt lat="43.98127" lon="5.25891">
        <ele>649.99</ele>
        <time>2021-05-03T09:15:39Z</time>
      </trkpt>
      <trkpt lat="43.98134" lon="5.25909">
        <ele>652.87</ele>
        <time>2021-05-03T09:15:58Z</time>
      </trkpt>
      <trkpt lat="43.98136" lon="5.25931">
        <ele>655.76</ele>
        <time>2021-05-03T09:16:19Z</time>
      </trkpt>
      <trkpt lat="43.98139" lon="5.25942">
        <ele>658.64</ele>
        <time>2021-05-03T09:16:34Z</time>
      </trkpt>
      <trkpt lat="43.98143" lon="5.25957">
        <ele>661.04</ele>
        <time>2021-05-03T09:16:49Z</time>
      </trkpt>
      <trkpt lat="43.98148" lon="5.25972">
        <ele>663.45</ele>
        <time>2021-05-03T09:17:07Z</time>
      </trkpt>
      <trkpt lat="43.98158" lon="5.25994">
        <ele>666.81</ele>
        <time>2021-05-03T09:17:30Z</time>
      </trkpt>
      <trkpt lat="43.98163" lon="5.26009">
        <ele>669.22</ele>
        <time>2021-05-03T09:17:52Z</time>
      </trkpt>
      <trkpt lat="43.98167" lon="5.26035">
        <ele>672.1</ele>
        <time>2021-05-03T09:18:17Z</time>
      </trkpt>
      <trkpt lat="43.98172" lon="5.26048">
        <ele>674.02</ele>
        <time>2021-05-03T09:18:32Z</time>
      </trkpt>
      <trkpt lat="43.98182" lon="5.26061">
        <ele>675.46</ele>
        <time>2021-05-03T09:18:54Z</time>
      </trkpt>
      <trkpt lat="43.98183" lon="5.26061">
        <ele>675.46</ele>
        <time>2021-05-03T09:19:19Z</time>
      </trkpt>
      <trkpt lat="43.98185" lon="5.2606">
        <ele>676.42</ele>
        <time>2021-05-03T09:19:45Z</time>
      </trkpt>
      <trkpt lat="43.98185" lon="5.26061">
        <ele>676.42</ele>
        <time>2021-05-03T09:20:17Z</time>
      </trkpt>
      <trkpt lat="43.98183" lon="5.26058">
        <ele>675.94</ele>
        <time>2021-05-03T09:20:49Z</time>
      </trkpt>
      <trkpt lat="43.98185" lon="5.26058">
        <ele>675.94</ele>
        <time>2021-05-03T09:21:24Z</time>
      </trkpt>
      <trkpt lat="43.98181" lon="5.26058">
        <ele>675.94</ele>
        <time>2021-05-03T09:21:54Z</time>
      </trkpt>
      <trkpt lat="43.98181" lon="5.26059">
        <ele>675.94</ele>
        <time>2021-05-03T09:22:27Z</time>
      </trkpt>
      <trkpt lat="43.98187" lon="5.26059">
        <ele>675.94</ele>
        <time>2021-05-03T09:22:51Z</time>
      </trkpt>
      <trkpt lat="43.98201" lon="5.26064">
        <ele>675.94</ele>
        <time>2021-05-03T09:23:08Z</time>
      </trkpt>
      <trkpt lat="43.98216" lon="5.2607">
        <ele>675.94</ele>
        <time>2021-05-03T09:23:21Z</time>
      </trkpt>
      <trkpt lat="43.98235" lon="5.26087">
        <ele>675.94</ele>
        <time>2021-05-03T09:23:43Z</time>
      </trkpt>
      <trkpt lat="43.98237" lon="5.26091">
        <ele>674.5</ele>
        <time>2021-05-03T09:23:47Z</time>
      </trkpt>
      <trkpt lat="43.98247" lon="5.26103">
        <ele>674.02</ele>
        <time>2021-05-03T09:24:00Z</time>
      </trkpt>
      <trkpt lat="43.98249" lon="5.26107">
        <ele>673.06</ele>
        <time>2021-05-03T09:24:04Z</time>
      </trkpt>
      <trkpt lat="43.98257" lon="5.26119">
        <ele>673.06</ele>
        <time>2021-05-03T09:24:17Z</time>
      </trkpt>
      <trkpt lat="43.98269" lon="5.26133">
        <ele>672.1</ele>
        <time>2021-05-03T09:24:37Z</time>
      </trkpt>
      <trkpt lat="43.9828" lon="5.26142">
        <ele>671.14</ele>
        <time>2021-05-03T09:24:50Z</time>
      </trkpt>
      <trkpt lat="43.98293" lon="5.26156">
        <ele>671.62</ele>
        <time>2021-05-03T09:25:07Z</time>
      </trkpt>
      <trkpt lat="43.98304" lon="5.26166">
        <ele>671.62</ele>
        <time>2021-05-03T09:25:25Z</time>
      </trkpt>
      <trkpt lat="43.98307" lon="5.26166">
        <ele>671.62</ele>
        <time>2021-05-03T09:25:48Z</time>
      </trkpt>
      <trkpt lat="43.98309" lon="5.26168">
        <ele>670.18</ele>
        <time>2021-05-03T09:26:09Z</time>
      </trkpt>
      <trkpt lat="43.98311" lon="5.26168">
        <ele>671.62</ele>
        <time>2021-05-03T09:26:37Z</time>
      </trkpt>
      <trkpt lat="43.98311" lon="5.26168">
        <ele>670.66</ele>
        <time>2021-05-03T09:27:06Z</time>
      </trkpt>
      <trkpt lat="43.98309" lon="5.26165">
        <ele>669.7</ele>
        <time>2021-05-03T09:27:29Z</time>
      </trkpt>
      <trkpt lat="43.98309" lon="5.26166">
        <ele>669.7</ele>
        <time>2021-05-03T09:27:57Z</time>
      </trkpt>
      <trkpt lat="43.98311" lon="5.26168">
        <ele>669.7</ele>
        <time>2021-05-03T09:28:18Z</time>
      </trkpt>
      <trkpt lat="43.98316" lon="5.2618">
        <ele>671.62</ele>
        <time>2021-05-03T09:28:32Z</time>
      </trkpt>
      <trkpt lat="43.9833" lon="5.26209">
        <ele>673.06</ele>
        <time>2021-05-03T09:28:54Z</time>
      </trkpt>
      <trkpt lat="43.98337" lon="5.26229">
        <ele>675.94</ele>
        <time>2021-05-03T09:29:11Z</time>
      </trkpt>
      <trkpt lat="43.98346" lon="5.26258">
        <ele>678.83</ele>
        <time>2021-05-03T09:29:35Z</time>
      </trkpt>
      <trkpt lat="43.98355" lon="5.26284">
        <ele>680.75</ele>
        <time>2021-05-03T09:29:59Z</time>
      </trkpt>
      <trkpt lat="43.98374" lon="5.26307">
        <ele>682.67</ele>
        <time>2021-05-03T09:30:22Z</time>
      </trkpt>
      <trkpt lat="43.98379" lon="5.26317">
        <ele>683.63</ele>
        <time>2021-05-03T09:30:33Z</time>
      </trkpt>
      <trkpt lat="43.98383" lon="5.26337">
        <ele>687</ele>
        <time>2021-05-03T09:30:53Z</time>
      </trkpt>
      <trkpt lat="43.98385" lon="5.26354">
        <ele>689.88</ele>
        <time>2021-05-03T09:31:09Z</time>
      </trkpt>
      <trkpt lat="43.98384" lon="5.26376">
        <ele>693.25</ele>
        <time>2021-05-03T09:31:32Z</time>
      </trkpt>
      <trkpt lat="43.98391" lon="5.264">
        <ele>696.13</ele>
        <time>2021-05-03T09:31:54Z</time>
      </trkpt>
      <trkpt lat="43.98396" lon="5.26411">
        <ele>697.09</ele>
        <time>2021-05-03T09:32:16Z</time>
      </trkpt>
      <trkpt lat="43.98394" lon="5.26414">
        <ele>697.57</ele>
        <time>2021-05-03T09:32:44Z</time>
      </trkpt>
      <trkpt lat="43.98393" lon="5.26413">
        <ele>697.57</ele>
        <time>2021-05-03T09:33:14Z</time>
      </trkpt>
      <trkpt lat="43.98395" lon="5.26413">
        <ele>698.53</ele>
        <time>2021-05-03T09:33:44Z</time>
      </trkpt>
      <trkpt lat="43.98394" lon="5.26412">
        <ele>698.05</ele>
        <time>2021-05-03T09:34:15Z</time>
      </trkpt>
      <trkpt lat="43.98393" lon="5.26411">
        <ele>698.05</ele>
        <time>2021-05-03T09:34:48Z</time>
      </trkpt>
      <trkpt lat="43.98394" lon="5.26412">
        <ele>698.05</ele>
        <time>2021-05-03T09:35:20Z</time>
      </trkpt>
      <trkpt lat="43.98395" lon="5.26414">
        <ele>698.05</ele>
        <time>2021-05-03T09:35:56Z</time>
      </trkpt>
      <trkpt lat="43.98397" lon="5.26412">
        <ele>698.05</ele>
        <time>2021-05-03T09:36:23Z</time>
      </trkpt>
      <trkpt lat="43.98403" lon="5.26402">
        <ele>697.57</ele>
        <time>2021-05-03T09:36:46Z</time>
      </trkpt>
      <trkpt lat="43.98416" lon="5.26401">
        <ele>699.02</ele>
        <time>2021-05-03T09:37:06Z</time>
      </trkpt>
      <trkpt lat="43.98434" lon="5.26409">
        <ele>702.38</ele>
        <time>2021-05-03T09:37:26Z</time>
      </trkpt>
      <trkpt lat="43.98449" lon="5.26404">
        <ele>704.78</ele>
        <time>2021-05-03T09:37:53Z</time>
      </trkpt>
      <trkpt lat="43.98459" lon="5.2639">
        <ele>707.67</ele>
        <time>2021-05-03T09:38:17Z</time>
      </trkpt>
      <trkpt lat="43.98461" lon="5.2639">
        <ele>707.19</ele>
        <time>2021-05-03T09:38:43Z</time>
      </trkpt>
      <trkpt lat="43.98463" lon="5.26389">
        <ele>707.19</ele>
        <time>2021-05-03T09:39:07Z</time>
      </trkpt>
      <trkpt lat="43.98458" lon="5.26401">
        <ele>706.23</ele>
        <time>2021-05-03T09:39:25Z</time>
      </trkpt>
      <trkpt lat="43.98462" lon="5.26397">
        <ele>707.19</ele>
        <time>2021-05-03T09:39:41Z</time>
      </trkpt>
      <trkpt lat="43.98463" lon="5.26395">
        <ele>707.19</ele>
        <time>2021-05-03T09:40:06Z</time>
      </trkpt>
      <trkpt lat="43.98465" lon="5.26395">
        <ele>707.19</ele>
        <time>2021-05-03T09:41:28Z</time>
      </trkpt>
      <trkpt lat="43.98465" lon="5.26395">
        <ele>707.19</ele>
        <time>2021-05-03T09:41:55Z</time>
      </trkpt>
      <trkpt lat="43.98465" lon="5.26394">
        <ele>707.19</ele>
        <time>2021-05-03T09:42:30Z</time>
      </trkpt>
      <trkpt lat="43.98465" lon="5.26397">
        <ele>707.19</ele>
        <time>2021-05-03T09:43:32Z</time>
      </trkpt>
      <trkpt lat="43.98465" lon="5.26396">
        <ele>707.19</ele>
        <time>2021-05-03T09:44:07Z</time>
      </trkpt>
      <trkpt lat="43.9847" lon="5.26391">
        <ele>707.19</ele>
        <time>2021-05-03T09:44:34Z</time>
      </trkpt>
      <trkpt lat="43.98463" lon="5.26392">
        <ele>707.19</ele>
        <time>2021-05-03T09:45:10Z</time>
      </trkpt>
      <trkpt lat="43.98464" lon="5.26393">
        <ele>707.19</ele>
        <time>2021-05-03T09:46:07Z</time>
      </trkpt>
      <trkpt lat="43.98463" lon="5.26394">
        <ele>707.19</ele>
        <time>2021-05-03T09:46:43Z</time>
      </trkpt>
      <trkpt lat="43.98463" lon="5.26394">
        <ele>707.19</ele>
        <time>2021-05-03T09:47:15Z</time>
      </trkpt>
      <trkpt lat="43.98465" lon="5.26392">
        <ele>707.19</ele>
        <time>2021-05-03T09:47:47Z</time>
      </trkpt>
      <trkpt lat="43.98463" lon="5.26395">
        <ele>707.19</ele>
        <time>2021-05-03T09:48:25Z</time>
      </trkpt>
      <trkpt lat="43.98462" lon="5.26396">
        <ele>707.19</ele>
        <time>2021-05-03T09:48:58Z</time>
      </trkpt>
      <trkpt lat="43.98463" lon="5.26394">
        <ele>707.19</ele>
        <time>2021-05-03T09:49:34Z</time>
      </trkpt>
      <trkpt lat="43.98463" lon="5.26395">
        <ele>707.19</ele>
        <time>2021-05-03T09:50:21Z</time>
      </trkpt>
      <trkpt lat="43.98463" lon="5.26396">
        <ele>707.19</ele>
        <time>2021-05-03T09:51:30Z</time>
      </trkpt>
      <trkpt lat="43.98462" lon="5.26396">
        <ele>707.19</ele>
        <time>2021-05-03T09:52:31Z</time>
      </trkpt>
      <trkpt lat="43.98462" lon="5.26396">
        <ele>707.19</ele>
        <time>2021-05-03T09:53:11Z</time>
      </trkpt>
      <trkpt lat="43.98463" lon="5.26396">
        <ele>707.19</ele>
        <time>2021-05-03T09:53:58Z</time>
      </trkpt>
      <trkpt lat="43.98464" lon="5.26395">
        <ele>707.19</ele>
        <time>2021-05-03T09:54:45Z</time>
      </trkpt>
      <trkpt lat="43.98466" lon="5.26394">
        <ele>704.78</ele>
        <time>2021-05-03T09:54:50Z</time>
      </trkpt>
      <trkpt lat="43.98466" lon="5.26394">
        <ele>709.11</ele>
        <time>2021-05-03T09:54:52Z</time>
      </trkpt>
      <trkpt lat="43.98466" lon="5.26394">
        <ele>709.11</ele>
        <time>2021-05-03T09:54:53Z</time>
      </trkpt>
      <trkpt lat="43.98466" lon="5.26394">
        <ele>707.19</ele>
        <time>2021-05-03T09:55:25Z</time>
      </trkpt>
      <trkpt lat="43.98465" lon="5.26394">
        <ele>703.82</ele>
        <time>2021-05-03T09:56:05Z</time>
      </trkpt>
      <trkpt lat="43.98465" lon="5.26394">
        <ele>703.34</ele>
        <time>2021-05-03T09:56:06Z</time>
      </trkpt>
      <trkpt lat="43.98464" lon="5.26394">
        <ele>706.71</ele>
        <time>2021-05-03T09:56:14Z</time>
      </trkpt>
      <trkpt lat="43.98466" lon="5.26393">
        <ele>711.03</ele>
        <time>2021-05-03T09:56:32Z</time>
      </trkpt>
      <trkpt lat="43.98465" lon="5.26394">
        <ele>707.67</ele>
        <time>2021-05-03T09:56:42Z</time>
      </trkpt>
      <trkpt lat="43.98467" lon="5.26395">
        <ele>707.67</ele>
        <time>2021-05-03T09:57:13Z</time>
      </trkpt>
      <trkpt lat="43.98465" lon="5.26396">
        <ele>707.19</ele>
        <time>2021-05-03T09:58:02Z</time>
      </trkpt>
      <trkpt lat="43.98465" lon="5.26395">
        <ele>707.67</ele>
        <time>2021-05-03T09:59:10Z</time>
      </trkpt>
      <trkpt lat="43.98466" lon="5.26393">
        <ele>707.67</ele>
        <time>2021-05-03T10:00:01Z</time>
      </trkpt>
      <trkpt lat="43.98464" lon="5.26394">
        <ele>707.67</ele>
        <time>2021-05-03T10:00:51Z</time>
      </trkpt>
      <trkpt lat="43.98462" lon="5.26396">
        <ele>707.67</ele>
        <time>2021-05-03T10:01:40Z</time>
      </trkpt>
      <trkpt lat="43.98466" lon="5.26394">
        <ele>707.67</ele>
        <time>2021-05-03T10:03:30Z</time>
      </trkpt>
      <trkpt lat="43.98466" lon="5.26395">
        <ele>707.67</ele>
        <time>2021-05-03T10:04:22Z</time>
      </trkpt>
      <trkpt lat="43.98465" lon="5.26395">
        <ele>707.67</ele>
        <time>2021-05-03T10:05:33Z</time>
      </trkpt>
      <trkpt lat="43.98465" lon="5.26395">
        <ele>707.67</ele>
        <time>2021-05-03T10:06:15Z</time>
      </trkpt>
      <trkpt lat="43.98464" lon="5.26396">
        <ele>707.67</ele>
        <time>2021-05-03T10:07:28Z</time>
      </trkpt>
      <trkpt lat="43.98464" lon="5.26396">
        <ele>707.67</ele>
        <time>2021-05-03T10:08:51Z</time>
      </trkpt>
      <trkpt lat="43.98465" lon="5.26394">
        <ele>707.67</ele>
        <time>2021-05-03T10:09:40Z</time>
      </trkpt>
      <trkpt lat="43.98467" lon="5.26393">
        <ele>707.67</ele>
        <time>2021-05-03T10:10:38Z</time>
      </trkpt>
      <trkpt lat="43.98465" lon="5.26394">
        <ele>707.67</ele>
        <time>2021-05-03T10:11:06Z</time>
      </trkpt>
      <trkpt lat="43.98464" lon="5.26398">
        <ele>707.67</ele>
        <time>2021-05-03T10:12:07Z</time>
      </trkpt>
      <trkpt lat="43.98464" lon="5.26396">
        <ele>707.67</ele>
        <time>2021-05-03T10:13:38Z</time>
      </trkpt>
      <trkpt lat="43.98464" lon="5.26397">
        <ele>693.73</ele>
        <time>2021-05-03T10:15:10Z</time>
      </trkpt>
      <trkpt lat="43.98464" lon="5.26397">
        <ele>696.13</ele>
        <time>2021-05-03T10:15:11Z</time>
      </trkpt>
      <trkpt lat="43.98464" lon="5.26397">
        <ele>704.78</ele>
        <time>2021-05-03T10:15:12Z</time>
      </trkpt>
      <trkpt lat="43.98465" lon="5.26396">
        <ele>702.38</ele>
        <time>2021-05-03T10:15:16Z</time>
      </trkpt>
      <trkpt lat="43.98466" lon="5.26396">
        <ele>706.71</ele>
        <time>2021-05-03T10:15:22Z</time>
      </trkpt>
      <trkpt lat="43.98467" lon="5.26395">
        <ele>708.15</ele>
        <time>2021-05-03T10:15:25Z</time>
      </trkpt>
      <trkpt lat="43.98469" lon="5.26394">
        <ele>707.19</ele>
        <time>2021-05-03T10:16:02Z</time>
      </trkpt>
      <trkpt lat="43.98468" lon="5.26394">
        <ele>707.19</ele>
        <time>2021-05-03T10:16:36Z</time>
      </trkpt>
      <trkpt lat="43.98465" lon="5.26396">
        <ele>708.15</ele>
        <time>2021-05-03T10:17:10Z</time>
      </trkpt>
      <trkpt lat="43.98462" lon="5.264">
        <ele>709.11</ele>
        <time>2021-05-03T10:17:42Z</time>
      </trkpt>
      <trkpt lat="43.98465" lon="5.26396">
        <ele>708.63</ele>
        <time>2021-05-03T10:18:15Z</time>
      </trkpt>
      <trkpt lat="43.98465" lon="5.26396">
        <ele>706.23</ele>
        <time>2021-05-03T10:18:23Z</time>
      </trkpt>
      <trkpt lat="43.98466" lon="5.26395">
        <ele>707.19</ele>
        <time>2021-05-03T10:18:29Z</time>
      </trkpt>
      <trkpt lat="43.98463" lon="5.26394">
        <ele>708.63</ele>
        <time>2021-05-03T10:19:01Z</time>
      </trkpt>
      <trkpt lat="43.98463" lon="5.26394">
        <ele>711.51</ele>
        <time>2021-05-03T10:19:08Z</time>
      </trkpt>
      <trkpt lat="43.98463" lon="5.26395">
        <ele>708.63</ele>
        <time>2021-05-03T10:19:10Z</time>
      </trkpt>
      <trkpt lat="43.98464" lon="5.26394">
        <ele>708.15</ele>
        <time>2021-05-03T10:19:18Z</time>
      </trkpt>
      <trkpt lat="43.98465" lon="5.26396">
        <ele>709.59</ele>
        <time>2021-05-03T10:19:51Z</time>
      </trkpt>
      <trkpt lat="43.98466" lon="5.26395">
        <ele>712.47</ele>
        <time>2021-05-03T10:20:04Z</time>
      </trkpt>
      <trkpt lat="43.98466" lon="5.26395">
        <ele>710.07</ele>
        <time>2021-05-03T10:20:12Z</time>
      </trkpt>
      <trkpt lat="43.98462" lon="5.26397">
        <ele>708.63</ele>
        <time>2021-05-03T10:20:42Z</time>
      </trkpt>
      <trkpt lat="43.98461" lon="5.26397">
        <ele>708.63</ele>
        <time>2021-05-03T10:21:10Z</time>
      </trkpt>
      <trkpt lat="43.98464" lon="5.26396">
        <ele>708.63</ele>
        <time>2021-05-03T10:21:59Z</time>
      </trkpt>
      <trkpt lat="43.98464" lon="5.26396">
        <ele>708.63</ele>
        <time>2021-05-03T10:22:41Z</time>
      </trkpt>
      <trkpt lat="43.98464" lon="5.26396">
        <ele>708.63</ele>
        <time>2021-05-03T10:23:39Z</time>
      </trkpt>
      <trkpt lat="43.98464" lon="5.26398">
        <ele>708.63</ele>
        <time>2021-05-03T10:24:47Z</time>
      </trkpt>
      <trkpt lat="43.98465" lon="5.26396">
        <ele>708.63</ele>
        <time>2021-05-03T10:25:56Z</time>
      </trkpt>
      <trkpt lat="43.98465" lon="5.26397">
        <ele>708.63</ele>
        <time>2021-05-03T10:26:39Z</time>
      </trkpt>
      <trkpt lat="43.98466" lon="5.26396">
        <ele>708.63</ele>
        <time>2021-05-03T10:27:04Z</time>
      </trkpt>
      <trkpt lat="43.98465" lon="5.26397">
        <ele>708.63</ele>
        <time>2021-05-03T10:27:37Z</time>
      </trkpt>
      <trkpt lat="43.9846" lon="5.26401">
        <ele>708.63</ele>
        <time>2021-05-03T10:27:58Z</time>
      </trkpt>
      <trkpt lat="43.98462" lon="5.26399">
        <ele>708.63</ele>
        <time>2021-05-03T10:28:28Z</time>
      </trkpt>
      <trkpt lat="43.98464" lon="5.26397">
        <ele>708.63</ele>
        <time>2021-05-03T10:28:56Z</time>
      </trkpt>
      <trkpt lat="43.98465" lon="5.26397">
        <ele>708.63</ele>
        <time>2021-05-03T10:29:18Z</time>
      </trkpt>
      <trkpt lat="43.98463" lon="5.26397">
        <ele>708.63</ele>
        <time>2021-05-03T10:29:22Z</time>
      </trkpt>
      <trkpt lat="43.98456" lon="5.26402">
        <ele>708.63</ele>
        <time>2021-05-03T10:29:47Z</time>
      </trkpt>
      <trkpt lat="43.98445" lon="5.26405">
        <ele>708.63</ele>
        <time>2021-05-03T10:30:06Z</time>
      </trkpt>
      <trkpt lat="43.98436" lon="5.26406">
        <ele>708.63</ele>
        <time>2021-05-03T10:30:21Z</time>
      </trkpt>
      <trkpt lat="43.98433" lon="5.26405">
        <ele>705.75</ele>
        <time>2021-05-03T10:30:27Z</time>
      </trkpt>
      <trkpt lat="43.98419" lon="5.26397">
        <ele>703.34</ele>
        <time>2021-05-03T10:30:50Z</time>
      </trkpt>
      <trkpt lat="43.98412" lon="5.26391">
        <ele>701.42</ele>
        <time>2021-05-03T10:31:07Z</time>
      </trkpt>
      <trkpt lat="43.98408" lon="5.26396">
        <ele>701.42</ele>
        <time>2021-05-03T10:31:23Z</time>
      </trkpt>
      <trkpt lat="43.98406" lon="5.26393">
        <ele>700.94</ele>
        <time>2021-05-03T10:31:55Z</time>
      </trkpt>
      <trkpt lat="43.98408" lon="5.26393">
        <ele>700.94</ele>
        <time>2021-05-03T10:32:21Z</time>
      </trkpt>
      <trkpt lat="43.98408" lon="5.26394">
        <ele>700.94</ele>
        <time>2021-05-03T10:32:52Z</time>
      </trkpt>
      <trkpt lat="43.98409" lon="5.26394">
        <ele>700.94</ele>
        <time>2021-05-03T10:33:16Z</time>
      </trkpt>
      <trkpt lat="43.98416" lon="5.26385">
        <ele>701.42</ele>
        <time>2021-05-03T10:33:36Z</time>
      </trkpt>
      <trkpt lat="43.9842" lon="5.26372">
        <ele>701.42</ele>
        <time>2021-05-03T10:33:49Z</time>
      </trkpt>
      <trkpt lat="43.98421" lon="5.2637">
        <ele>701.42</ele>
        <time>2021-05-03T10:33:50Z</time>
      </trkpt>
      <trkpt lat="43.98421" lon="5.26369">
        <ele>701.42</ele>
        <time>2021-05-03T10:33:51Z</time>
      </trkpt>
      <trkpt lat="43.98428" lon="5.26348">
        <ele>701.42</ele>
        <time>2021-05-03T10:34:07Z</time>
      </trkpt>
      <trkpt lat="43.98429" lon="5.26336">
        <ele>701.42</ele>
        <time>2021-05-03T10:34:15Z</time>
      </trkpt>
      <trkpt lat="43.98431" lon="5.26331">
        <ele>701.42</ele>
        <time>2021-05-03T10:34:19Z</time>
      </trkpt>
      <trkpt lat="43.98433" lon="5.26327">
        <ele>701.42</ele>
        <time>2021-05-03T10:34:22Z</time>
      </trkpt>
      <trkpt lat="43.98435" lon="5.26313">
        <ele>701.42</ele>
        <time>2021-05-03T10:34:32Z</time>
      </trkpt>
      <trkpt lat="43.98435" lon="5.26293">
        <ele>701.42</ele>
        <time>2021-05-03T10:34:45Z</time>
      </trkpt>
      <trkpt lat="43.98434" lon="5.26281">
        <ele>699.98</ele>
        <time>2021-05-03T10:34:53Z</time>
      </trkpt>
      <trkpt lat="43.98432" lon="5.26272">
        <ele>702.38</ele>
        <time>2021-05-03T10:35:00Z</time>
      </trkpt>
      <trkpt lat="43.9843" lon="5.26252">
        <ele>700.94</ele>
        <time>2021-05-03T10:35:13Z</time>
      </trkpt>
      <trkpt lat="43.9843" lon="5.2625">
        <ele>700.94</ele>
        <time>2021-05-03T10:35:14Z</time>
      </trkpt>
      <trkpt lat="43.98434" lon="5.26228">
        <ele>701.42</ele>
        <time>2021-05-03T10:35:31Z</time>
      </trkpt>
      <trkpt lat="43.98434" lon="5.26222">
        <ele>701.42</ele>
        <time>2021-05-03T10:35:35Z</time>
      </trkpt>
      <trkpt lat="43.9843" lon="5.26198">
        <ele>700.94</ele>
        <time>2021-05-03T10:35:53Z</time>
      </trkpt>
      <trkpt lat="43.98424" lon="5.26186">
        <ele>700.94</ele>
        <time>2021-05-03T10:36:01Z</time>
      </trkpt>
      <trkpt lat="43.98422" lon="5.26183">
        <ele>701.42</ele>
        <time>2021-05-03T10:36:03Z</time>
      </trkpt>
      <trkpt lat="43.9842" lon="5.2618">
        <ele>701.42</ele>
        <time>2021-05-03T10:36:05Z</time>
      </trkpt>
      <trkpt lat="43.9842" lon="5.26178">
        <ele>701.42</ele>
        <time>2021-05-03T10:36:06Z</time>
      </trkpt>
      <trkpt lat="43.98409" lon="5.26161">
        <ele>699.02</ele>
        <time>2021-05-03T10:36:20Z</time>
      </trkpt>
      <trkpt lat="43.98398" lon="5.26139">
        <ele>697.09</ele>
        <time>2021-05-03T10:36:38Z</time>
      </trkpt>
      <trkpt lat="43.98392" lon="5.26118">
        <ele>696.13</ele>
        <time>2021-05-03T10:36:54Z</time>
      </trkpt>
      <trkpt lat="43.98386" lon="5.26101">
        <ele>695.17</ele>
        <time>2021-05-03T10:37:10Z</time>
      </trkpt>
      <trkpt lat="43.98375" lon="5.26083">
        <ele>694.21</ele>
        <time>2021-05-03T10:37:26Z</time>
      </trkpt>
      <trkpt lat="43.98364" lon="5.26055">
        <ele>693.25</ele>
        <time>2021-05-03T10:37:45Z</time>
      </trkpt>
      <trkpt lat="43.9836" lon="5.2603">
        <ele>692.29</ele>
        <time>2021-05-03T10:38:03Z</time>
      </trkpt>
      <trkpt lat="43.98367" lon="5.26">
        <ele>691.33</ele>
        <time>2021-05-03T10:38:25Z</time>
      </trkpt>
      <trkpt lat="43.98368" lon="5.25995">
        <ele>691.33</ele>
        <time>2021-05-03T10:38:28Z</time>
      </trkpt>
      <trkpt lat="43.98378" lon="5.25975">
        <ele>690.84</ele>
        <time>2021-05-03T10:38:47Z</time>
      </trkpt>
      <trkpt lat="43.98385" lon="5.25966">
        <ele>690.84</ele>
        <time>2021-05-03T10:38:57Z</time>
      </trkpt>
      <trkpt lat="43.98398" lon="5.25953">
        <ele>690.36</ele>
        <time>2021-05-03T10:39:12Z</time>
      </trkpt>
      <trkpt lat="43.98411" lon="5.25933">
        <ele>689.88</ele>
        <time>2021-05-03T10:39:28Z</time>
      </trkpt>
      <trkpt lat="43.98416" lon="5.25923">
        <ele>689.4</ele>
        <time>2021-05-03T10:39:36Z</time>
      </trkpt>
      <trkpt lat="43.98415" lon="5.25911">
        <ele>688.92</ele>
        <time>2021-05-03T10:39:44Z</time>
      </trkpt>
      <trkpt lat="43.98414" lon="5.25909">
        <ele>688.92</ele>
        <time>2021-05-03T10:39:45Z</time>
      </trkpt>
      <trkpt lat="43.98411" lon="5.259">
        <ele>688.92</ele>
        <time>2021-05-03T10:39:51Z</time>
      </trkpt>
      <trkpt lat="43.9841" lon="5.25894">
        <ele>688.92</ele>
        <time>2021-05-03T10:39:55Z</time>
      </trkpt>
      <trkpt lat="43.98401" lon="5.25872">
        <ele>687.96</ele>
        <time>2021-05-03T10:40:11Z</time>
      </trkpt>
      <trkpt lat="43.98397" lon="5.25863">
        <ele>687</ele>
        <time>2021-05-03T10:40:18Z</time>
      </trkpt>
      <trkpt lat="43.98396" lon="5.25861">
        <ele>687</ele>
        <time>2021-05-03T10:40:19Z</time>
      </trkpt>
      <trkpt lat="43.98396" lon="5.25859">
        <ele>687</ele>
        <time>2021-05-03T10:40:20Z</time>
      </trkpt>
      <trkpt lat="43.98392" lon="5.25838">
        <ele>687.96</ele>
        <time>2021-05-03T10:40:38Z</time>
      </trkpt>
      <trkpt lat="43.98394" lon="5.25814">
        <ele>687</ele>
        <time>2021-05-03T10:40:56Z</time>
      </trkpt>
      <trkpt lat="43.984" lon="5.25801">
        <ele>686.04</ele>
        <time>2021-05-03T10:41:10Z</time>
      </trkpt>
      <trkpt lat="43.98401" lon="5.25788">
        <ele>686.52</ele>
        <time>2021-05-03T10:41:20Z</time>
      </trkpt>
      <trkpt lat="43.98401" lon="5.25786">
        <ele>686.52</ele>
        <time>2021-05-03T10:41:21Z</time>
      </trkpt>
      <trkpt lat="43.984" lon="5.25785">
        <ele>686.52</ele>
        <time>2021-05-03T10:41:22Z</time>
      </trkpt>
      <trkpt lat="43.984" lon="5.25784">
        <ele>686.52</ele>
        <time>2021-05-03T10:41:23Z</time>
      </trkpt>
      <trkpt lat="43.98399" lon="5.25782">
        <ele>686.52</ele>
        <time>2021-05-03T10:41:24Z</time>
      </trkpt>
      <trkpt lat="43.98394" lon="5.25751">
        <ele>687</ele>
        <time>2021-05-03T10:41:44Z</time>
      </trkpt>
      <trkpt lat="43.98401" lon="5.25728">
        <ele>687</ele>
        <time>2021-05-03T10:42:00Z</time>
      </trkpt>
      <trkpt lat="43.98399" lon="5.25715">
        <ele>686.52</ele>
        <time>2021-05-03T10:42:10Z</time>
      </trkpt>
      <trkpt lat="43.98398" lon="5.25713">
        <ele>686.52</ele>
        <time>2021-05-03T10:42:11Z</time>
      </trkpt>
      <trkpt lat="43.98397" lon="5.25711">
        <ele>686.52</ele>
        <time>2021-05-03T10:42:12Z</time>
      </trkpt>
      <trkpt lat="43.98397" lon="5.25709">
        <ele>686.52</ele>
        <time>2021-05-03T10:42:13Z</time>
      </trkpt>
      <trkpt lat="43.98397" lon="5.25707">
        <ele>686.52</ele>
        <time>2021-05-03T10:42:14Z</time>
      </trkpt>
      <trkpt lat="43.98396" lon="5.25705">
        <ele>686.52</ele>
        <time>2021-05-03T10:42:15Z</time>
      </trkpt>
      <trkpt lat="43.98396" lon="5.25704">
        <ele>686.52</ele>
        <time>2021-05-03T10:42:16Z</time>
      </trkpt>
      <trkpt lat="43.98393" lon="5.25688">
        <ele>687</ele>
        <time>2021-05-03T10:42:25Z</time>
      </trkpt>
      <trkpt lat="43.98392" lon="5.25686">
        <ele>687</ele>
        <time>2021-05-03T10:42:26Z</time>
      </trkpt>
      <trkpt lat="43.98391" lon="5.2567">
        <ele>687</ele>
        <time>2021-05-03T10:42:35Z</time>
      </trkpt>
      <trkpt lat="43.98391" lon="5.25668">
        <ele>687</ele>
        <time>2021-05-03T10:42:36Z</time>
      </trkpt>
      <trkpt lat="43.98391" lon="5.25667">
        <ele>687</ele>
        <time>2021-05-03T10:42:37Z</time>
      </trkpt>
      <trkpt lat="43.98391" lon="5.25665">
        <ele>687</ele>
        <time>2021-05-03T10:42:38Z</time>
      </trkpt>
      <trkpt lat="43.98391" lon="5.25663">
        <ele>687</ele>
        <time>2021-05-03T10:42:39Z</time>
      </trkpt>
      <trkpt lat="43.98391" lon="5.25661">
        <ele>687</ele>
        <time>2021-05-03T10:42:40Z</time>
      </trkpt>
      <trkpt lat="43.98382" lon="5.25639">
        <ele>687</ele>
        <time>2021-05-03T10:42:55Z</time>
      </trkpt>
      <trkpt lat="43.98373" lon="5.25617">
        <ele>687</ele>
        <time>2021-05-03T10:43:11Z</time>
      </trkpt>
      <trkpt lat="43.98368" lon="5.25589">
        <ele>687</ele>
        <time>2021-05-03T10:43:28Z</time>
      </trkpt>
      <trkpt lat="43.98369" lon="5.25566">
        <ele>687.96</ele>
        <time>2021-05-03T10:43:42Z</time>
      </trkpt>
      <trkpt lat="43.98364" lon="5.25536">
        <ele>687.48</ele>
        <time>2021-05-03T10:44:00Z</time>
      </trkpt>
      <trkpt lat="43.98359" lon="5.25509">
        <ele>687.48</ele>
        <time>2021-05-03T10:44:17Z</time>
      </trkpt>
      <trkpt lat="43.98357" lon="5.25496">
        <ele>687.48</ele>
        <time>2021-05-03T10:44:25Z</time>
      </trkpt>
      <trkpt lat="43.98355" lon="5.25488">
        <ele>687.48</ele>
        <time>2021-05-03T10:44:32Z</time>
      </trkpt>
      <trkpt lat="43.98346" lon="5.25461">
        <ele>687.96</ele>
        <time>2021-05-03T10:44:51Z</time>
      </trkpt>
      <trkpt lat="43.98342" lon="5.25432">
        <ele>687.96</ele>
        <time>2021-05-03T10:45:08Z</time>
      </trkpt>
      <trkpt lat="43.9834" lon="5.2543">
        <ele>687.96</ele>
        <time>2021-05-03T10:45:10Z</time>
      </trkpt>
      <trkpt lat="43.9834" lon="5.25429">
        <ele>687.96</ele>
        <time>2021-05-03T10:45:11Z</time>
      </trkpt>
      <trkpt lat="43.98335" lon="5.25403">
        <ele>687.48</ele>
        <time>2021-05-03T10:45:27Z</time>
      </trkpt>
      <trkpt lat="43.98334" lon="5.25385">
        <ele>687.96</ele>
        <time>2021-05-03T10:45:38Z</time>
      </trkpt>
      <trkpt lat="43.98334" lon="5.25384">
        <ele>687.96</ele>
        <time>2021-05-03T10:45:39Z</time>
      </trkpt>
      <trkpt lat="43.9833" lon="5.25368">
        <ele>687.96</ele>
        <time>2021-05-03T10:45:49Z</time>
      </trkpt>
      <trkpt lat="43.98322" lon="5.25347">
        <ele>687.48</ele>
        <time>2021-05-03T10:46:03Z</time>
      </trkpt>
      <trkpt lat="43.98321" lon="5.25347">
        <ele>687.96</ele>
        <time>2021-05-03T10:46:26Z</time>
      </trkpt>
      <trkpt lat="43.98321" lon="5.25346">
        <ele>687.96</ele>
        <time>2021-05-03T10:47:01Z</time>
      </trkpt>
      <trkpt lat="43.98321" lon="5.25346">
        <ele>690.36</ele>
        <time>2021-05-03T10:47:08Z</time>
      </trkpt>
      <trkpt lat="43.98321" lon="5.25346">
        <ele>688.44</ele>
        <time>2021-05-03T10:47:12Z</time>
      </trkpt>
      <trkpt lat="43.9832" lon="5.25344">
        <ele>687</ele>
        <time>2021-05-03T10:47:45Z</time>
      </trkpt>
      <trkpt lat="43.98321" lon="5.25344">
        <ele>687.48</ele>
        <time>2021-05-03T10:48:17Z</time>
      </trkpt>
      <trkpt lat="43.98324" lon="5.25345">
        <ele>687.48</ele>
        <time>2021-05-03T10:48:50Z</time>
      </trkpt>
      <trkpt lat="43.98323" lon="5.25345">
        <ele>687.48</ele>
        <time>2021-05-03T10:49:15Z</time>
      </trkpt>
      <trkpt lat="43.98322" lon="5.25344">
        <ele>687.48</ele>
        <time>2021-05-03T10:49:49Z</time>
      </trkpt>
      <trkpt lat="43.9832" lon="5.25344">
        <ele>687.48</ele>
        <time>2021-05-03T10:50:18Z</time>
      </trkpt>
      <trkpt lat="43.98319" lon="5.25344">
        <ele>687.48</ele>
        <time>2021-05-03T10:50:46Z</time>
      </trkpt>
      <trkpt lat="43.98315" lon="5.25336">
        <ele>687.48</ele>
        <time>2021-05-03T10:51:10Z</time>
      </trkpt>
      <trkpt lat="43.98305" lon="5.25315">
        <ele>687.48</ele>
        <time>2021-05-03T10:51:33Z</time>
      </trkpt>
      <trkpt lat="43.98297" lon="5.25289">
        <ele>686.52</ele>
        <time>2021-05-03T10:51:54Z</time>
      </trkpt>
      <trkpt lat="43.98295" lon="5.25273">
        <ele>685.56</ele>
        <time>2021-05-03T10:52:07Z</time>
      </trkpt>
      <trkpt lat="43.98295" lon="5.25271">
        <ele>685.56</ele>
        <time>2021-05-03T10:52:08Z</time>
      </trkpt>
      <trkpt lat="43.983" lon="5.25253">
        <ele>685.08</ele>
        <time>2021-05-03T10:52:19Z</time>
      </trkpt>
      <trkpt lat="43.983" lon="5.25251">
        <ele>685.08</ele>
        <time>2021-05-03T10:52:20Z</time>
      </trkpt>
      <trkpt lat="43.98301" lon="5.2525">
        <ele>685.08</ele>
        <time>2021-05-03T10:52:21Z</time>
      </trkpt>
      <trkpt lat="43.98303" lon="5.25245">
        <ele>684.6</ele>
        <time>2021-05-03T10:52:24Z</time>
      </trkpt>
      <trkpt lat="43.98311" lon="5.2523">
        <ele>684.12</ele>
        <time>2021-05-03T10:52:36Z</time>
      </trkpt>
      <trkpt lat="43.98313" lon="5.25228">
        <ele>683.63</ele>
        <time>2021-05-03T10:52:38Z</time>
      </trkpt>
      <trkpt lat="43.98317" lon="5.25225">
        <ele>683.63</ele>
        <time>2021-05-03T10:52:42Z</time>
      </trkpt>
      <trkpt lat="43.98326" lon="5.25219">
        <ele>683.15</ele>
        <time>2021-05-03T10:52:52Z</time>
      </trkpt>
      <trkpt lat="43.98327" lon="5.25219">
        <ele>683.15</ele>
        <time>2021-05-03T10:52:53Z</time>
      </trkpt>
      <trkpt lat="43.98329" lon="5.25219">
        <ele>683.15</ele>
        <time>2021-05-03T10:52:54Z</time>
      </trkpt>
      <trkpt lat="43.98332" lon="5.25219">
        <ele>683.15</ele>
        <time>2021-05-03T10:52:56Z</time>
      </trkpt>
      <trkpt lat="43.98333" lon="5.25219">
        <ele>683.15</ele>
        <time>2021-05-03T10:52:57Z</time>
      </trkpt>
      <trkpt lat="43.98334" lon="5.2522">
        <ele>683.15</ele>
        <time>2021-05-03T10:52:58Z</time>
      </trkpt>
      <trkpt lat="43.98335" lon="5.2522">
        <ele>683.15</ele>
        <time>2021-05-03T10:52:59Z</time>
      </trkpt>
      <trkpt lat="43.98338" lon="5.25221">
        <ele>683.15</ele>
        <time>2021-05-03T10:53:01Z</time>
      </trkpt>
      <trkpt lat="43.98342" lon="5.25222">
        <ele>682.19</ele>
        <time>2021-05-03T10:53:05Z</time>
      </trkpt>
      <trkpt lat="43.98346" lon="5.25224">
        <ele>681.71</ele>
        <time>2021-05-03T10:53:09Z</time>
      </trkpt>
      <trkpt lat="43.98347" lon="5.25225">
        <ele>681.71</ele>
        <time>2021-05-03T10:53:10Z</time>
      </trkpt>
      <trkpt lat="43.98348" lon="5.25226">
        <ele>681.71</ele>
        <time>2021-05-03T10:53:11Z</time>
      </trkpt>
      <trkpt lat="43.98367" lon="5.25231">
        <ele>679.79</ele>
        <time>2021-05-03T10:53:27Z</time>
      </trkpt>
      <trkpt lat="43.98382" lon="5.25237">
        <ele>678.35</ele>
        <time>2021-05-03T10:53:41Z</time>
      </trkpt>
      <trkpt lat="43.9839" lon="5.2524">
        <ele>677.39</ele>
        <time>2021-05-03T10:53:53Z</time>
      </trkpt>
      <trkpt lat="43.98391" lon="5.2524">
        <ele>677.39</ele>
        <time>2021-05-03T10:53:54Z</time>
      </trkpt>
      <trkpt lat="43.98402" lon="5.25242">
        <ele>676.42</ele>
        <time>2021-05-03T10:54:05Z</time>
      </trkpt>
      <trkpt lat="43.98413" lon="5.25242">
        <ele>675.94</ele>
        <time>2021-05-03T10:54:21Z</time>
      </trkpt>
      <trkpt lat="43.98415" lon="5.25241">
        <ele>675.94</ele>
        <time>2021-05-03T10:54:23Z</time>
      </trkpt>
      <trkpt lat="43.98427" lon="5.25239">
        <ele>675.94</ele>
        <time>2021-05-03T10:54:34Z</time>
      </trkpt>
      <trkpt lat="43.98436" lon="5.25239">
        <ele>674.98</ele>
        <time>2021-05-03T10:54:41Z</time>
      </trkpt>
      <trkpt lat="43.98443" lon="5.25239">
        <ele>674.02</ele>
        <time>2021-05-03T10:54:46Z</time>
      </trkpt>
      <trkpt lat="43.98445" lon="5.2524">
        <ele>674.02</ele>
        <time>2021-05-03T10:54:47Z</time>
      </trkpt>
      <trkpt lat="43.98451" lon="5.25239">
        <ele>674.02</ele>
        <time>2021-05-03T10:54:55Z</time>
      </trkpt>
      <trkpt lat="43.9846" lon="5.25228">
        <ele>673.54</ele>
        <time>2021-05-03T10:55:05Z</time>
      </trkpt>
      <trkpt lat="43.98464" lon="5.25218">
        <ele>673.06</ele>
        <time>2021-05-03T10:55:11Z</time>
      </trkpt>
      <trkpt lat="43.98465" lon="5.25217">
        <ele>672.58</ele>
        <time>2021-05-03T10:55:12Z</time>
      </trkpt>
      <trkpt lat="43.9847" lon="5.25208">
        <ele>672.1</ele>
        <time>2021-05-03T10:55:19Z</time>
      </trkpt>
      <trkpt lat="43.9848" lon="5.25196">
        <ele>671.62</ele>
        <time>2021-05-03T10:55:31Z</time>
      </trkpt>
      <trkpt lat="43.9849" lon="5.25175">
        <ele>670.18</ele>
        <time>2021-05-03T10:55:47Z</time>
      </trkpt>
      <trkpt lat="43.98497" lon="5.25157">
        <ele>669.22</ele>
        <time>2021-05-03T10:56:00Z</time>
      </trkpt>
      <trkpt lat="43.98502" lon="5.25147">
        <ele>668.25</ele>
        <time>2021-05-03T10:56:07Z</time>
      </trkpt>
      <trkpt lat="43.98505" lon="5.2514">
        <ele>667.29</ele>
        <time>2021-05-03T10:56:12Z</time>
      </trkpt>
      <trkpt lat="43.98507" lon="5.25123">
        <ele>666.33</ele>
        <time>2021-05-03T10:56:23Z</time>
      </trkpt>
      <trkpt lat="43.98506" lon="5.25111">
        <ele>665.37</ele>
        <time>2021-05-03T10:56:39Z</time>
      </trkpt>
      <trkpt lat="43.98513" lon="5.25109">
        <ele>664.89</ele>
        <time>2021-05-03T10:57:18Z</time>
      </trkpt>
      <trkpt lat="43.98509" lon="5.25106">
        <ele>664.41</ele>
        <time>2021-05-03T10:57:47Z</time>
      </trkpt>
      <trkpt lat="43.9851" lon="5.25106">
        <ele>663.93</ele>
        <time>2021-05-03T10:58:38Z</time>
      </trkpt>
      <trkpt lat="43.98506" lon="5.25106">
        <ele>664.89</ele>
        <time>2021-05-03T10:59:02Z</time>
      </trkpt>
      <trkpt lat="43.98503" lon="5.25103">
        <ele>664.89</ele>
        <time>2021-05-03T10:59:34Z</time>
      </trkpt>
      <trkpt lat="43.98495" lon="5.25106">
        <ele>664.41</ele>
        <time>2021-05-03T10:59:54Z</time>
      </trkpt>
      <trkpt lat="43.98485" lon="5.25102">
        <ele>663.93</ele>
        <time>2021-05-03T11:00:13Z</time>
      </trkpt>
      <trkpt lat="43.98469" lon="5.25114">
        <ele>663.45</ele>
        <time>2021-05-03T11:00:35Z</time>
      </trkpt>
      <trkpt lat="43.98456" lon="5.25121">
        <ele>662.01</ele>
        <time>2021-05-03T11:00:54Z</time>
      </trkpt>
      <trkpt lat="43.98445" lon="5.25125">
        <ele>662.49</ele>
        <time>2021-05-03T11:01:13Z</time>
      </trkpt>
      <trkpt lat="43.98429" lon="5.25124">
        <ele>661.52</ele>
        <time>2021-05-03T11:01:29Z</time>
      </trkpt>
      <trkpt lat="43.98411" lon="5.25111">
        <ele>658.64</ele>
        <time>2021-05-03T11:01:51Z</time>
      </trkpt>
      <trkpt lat="43.98397" lon="5.25073">
        <ele>658.16</ele>
        <time>2021-05-03T11:02:17Z</time>
      </trkpt>
      <trkpt lat="43.98389" lon="5.25063">
        <ele>659.12</ele>
        <time>2021-05-03T11:02:25Z</time>
      </trkpt>
      <trkpt lat="43.98388" lon="5.25062">
        <ele>659.12</ele>
        <time>2021-05-03T11:02:26Z</time>
      </trkpt>
      <trkpt lat="43.9837" lon="5.25049">
        <ele>658.64</ele>
        <time>2021-05-03T11:02:44Z</time>
      </trkpt>
      <trkpt lat="43.98355" lon="5.25039">
        <ele>658.64</ele>
        <time>2021-05-03T11:03:00Z</time>
      </trkpt>
      <trkpt lat="43.98345" lon="5.2504">
        <ele>659.12</ele>
        <time>2021-05-03T11:03:11Z</time>
      </trkpt>
      <trkpt lat="43.98329" lon="5.25041">
        <ele>658.64</ele>
        <time>2021-05-03T11:03:25Z</time>
      </trkpt>
      <trkpt lat="43.98317" lon="5.25042">
        <ele>658.64</ele>
        <time>2021-05-03T11:03:35Z</time>
      </trkpt>
      <trkpt lat="43.98303" lon="5.2504">
        <ele>659.12</ele>
        <time>2021-05-03T11:03:49Z</time>
      </trkpt>
      <trkpt lat="43.9829" lon="5.25032">
        <ele>659.6</ele>
        <time>2021-05-03T11:04:04Z</time>
      </trkpt>
      <trkpt lat="43.98277" lon="5.25013">
        <ele>659.12</ele>
        <time>2021-05-03T11:04:19Z</time>
      </trkpt>
      <trkpt lat="43.98268" lon="5.24999">
        <ele>658.64</ele>
        <time>2021-05-03T11:04:32Z</time>
      </trkpt>
      <trkpt lat="43.98267" lon="5.24998">
        <ele>658.64</ele>
        <time>2021-05-03T11:04:33Z</time>
      </trkpt>
      <trkpt lat="43.98262" lon="5.24991">
        <ele>659.12</ele>
        <time>2021-05-03T11:04:38Z</time>
      </trkpt>
      <trkpt lat="43.98262" lon="5.24989">
        <ele>659.12</ele>
        <time>2021-05-03T11:04:39Z</time>
      </trkpt>
      <trkpt lat="43.98257" lon="5.24975">
        <ele>658.64</ele>
        <time>2021-05-03T11:04:49Z</time>
      </trkpt>
      <trkpt lat="43.98245" lon="5.2496">
        <ele>658.64</ele>
        <time>2021-05-03T11:05:03Z</time>
      </trkpt>
      <trkpt lat="43.98244" lon="5.24959">
        <ele>658.64</ele>
        <time>2021-05-03T11:05:04Z</time>
      </trkpt>
      <trkpt lat="43.9823" lon="5.24943">
        <ele>658.64</ele>
        <time>2021-05-03T11:05:18Z</time>
      </trkpt>
      <trkpt lat="43.98219" lon="5.24936">
        <ele>658.64</ele>
        <time>2021-05-03T11:05:27Z</time>
      </trkpt>
      <trkpt lat="43.98218" lon="5.24935">
        <ele>658.64</ele>
        <time>2021-05-03T11:05:28Z</time>
      </trkpt>
      <trkpt lat="43.98217" lon="5.24935">
        <ele>658.64</ele>
        <time>2021-05-03T11:05:29Z</time>
      </trkpt>
      <trkpt lat="43.98216" lon="5.24934">
        <ele>658.64</ele>
        <time>2021-05-03T11:05:30Z</time>
      </trkpt>
      <trkpt lat="43.98204" lon="5.24926">
        <ele>658.16</ele>
        <time>2021-05-03T11:05:43Z</time>
      </trkpt>
      <trkpt lat="43.98201" lon="5.24924">
        <ele>658.16</ele>
        <time>2021-05-03T11:05:46Z</time>
      </trkpt>
      <trkpt lat="43.98191" lon="5.24919">
        <ele>658.16</ele>
        <time>2021-05-03T11:05:57Z</time>
      </trkpt>
      <trkpt lat="43.98179" lon="5.24914">
        <ele>658.16</ele>
        <time>2021-05-03T11:06:08Z</time>
      </trkpt>
      <trkpt lat="43.98176" lon="5.24915">
        <ele>658.16</ele>
        <time>2021-05-03T11:06:11Z</time>
      </trkpt>
      <trkpt lat="43.98163" lon="5.24914">
        <ele>658.16</ele>
        <time>2021-05-03T11:06:22Z</time>
      </trkpt>
      <trkpt lat="43.98151" lon="5.24917">
        <ele>658.64</ele>
        <time>2021-05-03T11:06:34Z</time>
      </trkpt>
      <trkpt lat="43.98126" lon="5.24938">
        <ele>658.64</ele>
        <time>2021-05-03T11:06:58Z</time>
      </trkpt>
      <trkpt lat="43.98115" lon="5.24946">
        <ele>658.16</ele>
        <time>2021-05-03T11:07:12Z</time>
      </trkpt>
      <trkpt lat="43.9811" lon="5.24948">
        <ele>658.16</ele>
        <time>2021-05-03T11:07:17Z</time>
      </trkpt>
      <trkpt lat="43.98101" lon="5.24955">
        <ele>657.68</ele>
        <time>2021-05-03T11:07:25Z</time>
      </trkpt>
      <trkpt lat="43.98082" lon="5.24963">
        <ele>657.2</ele>
        <time>2021-05-03T11:07:41Z</time>
      </trkpt>
      <trkpt lat="43.98069" lon="5.24969">
        <ele>657.2</ele>
        <time>2021-05-03T11:07:53Z</time>
      </trkpt>
      <trkpt lat="43.98054" lon="5.24966">
        <ele>657.68</ele>
        <time>2021-05-03T11:08:07Z</time>
      </trkpt>
      <trkpt lat="43.98026" lon="5.2495">
        <ele>657.2</ele>
        <time>2021-05-03T11:08:32Z</time>
      </trkpt>
      <trkpt lat="43.9802" lon="5.24946">
        <ele>657.2</ele>
        <time>2021-05-03T11:08:37Z</time>
      </trkpt>
      <trkpt lat="43.98018" lon="5.24943">
        <ele>657.68</ele>
        <time>2021-05-03T11:08:39Z</time>
      </trkpt>
      <trkpt lat="43.98015" lon="5.24941">
        <ele>657.68</ele>
        <time>2021-05-03T11:08:42Z</time>
      </trkpt>
      <trkpt lat="43.98014" lon="5.24939">
        <ele>657.68</ele>
        <time>2021-05-03T11:08:43Z</time>
      </trkpt>
      <trkpt lat="43.98001" lon="5.24913">
        <ele>657.68</ele>
        <time>2021-05-03T11:09:02Z</time>
      </trkpt>
      <trkpt lat="43.97998" lon="5.2489">
        <ele>657.68</ele>
        <time>2021-05-03T11:09:18Z</time>
      </trkpt>
      <trkpt lat="43.97998" lon="5.24886">
        <ele>657.2</ele>
        <time>2021-05-03T11:09:21Z</time>
      </trkpt>
      <trkpt lat="43.97999" lon="5.24882">
        <ele>657.2</ele>
        <time>2021-05-03T11:09:23Z</time>
      </trkpt>
      <trkpt lat="43.97999" lon="5.24875">
        <ele>657.2</ele>
        <time>2021-05-03T11:09:26Z</time>
      </trkpt>
      <trkpt lat="43.98002" lon="5.24864">
        <ele>657.2</ele>
        <time>2021-05-03T11:09:35Z</time>
      </trkpt>
      <trkpt lat="43.98005" lon="5.2486">
        <ele>657.2</ele>
        <time>2021-05-03T11:09:38Z</time>
      </trkpt>
      <trkpt lat="43.98006" lon="5.24859">
        <ele>657.2</ele>
        <time>2021-05-03T11:09:39Z</time>
      </trkpt>
      <trkpt lat="43.98007" lon="5.24857">
        <ele>657.2</ele>
        <time>2021-05-03T11:09:40Z</time>
      </trkpt>
      <trkpt lat="43.98007" lon="5.24855">
        <ele>657.2</ele>
        <time>2021-05-03T11:09:41Z</time>
      </trkpt>
      <trkpt lat="43.98008" lon="5.24854">
        <ele>657.2</ele>
        <time>2021-05-03T11:09:42Z</time>
      </trkpt>
      <trkpt lat="43.98013" lon="5.24844">
        <ele>657.2</ele>
        <time>2021-05-03T11:09:50Z</time>
      </trkpt>
      <trkpt lat="43.98014" lon="5.24843">
        <ele>657.2</ele>
        <time>2021-05-03T11:09:51Z</time>
      </trkpt>
      <trkpt lat="43.98015" lon="5.24841">
        <ele>657.2</ele>
        <time>2021-05-03T11:09:52Z</time>
      </trkpt>
      <trkpt lat="43.98025" lon="5.24829">
        <ele>657.68</ele>
        <time>2021-05-03T11:10:02Z</time>
      </trkpt>
      <trkpt lat="43.98032" lon="5.24818">
        <ele>657.2</ele>
        <time>2021-05-03T11:10:11Z</time>
      </trkpt>
      <trkpt lat="43.98033" lon="5.24816">
        <ele>657.2</ele>
        <time>2021-05-03T11:10:13Z</time>
      </trkpt>
      <trkpt lat="43.98043" lon="5.24802">
        <ele>657.2</ele>
        <time>2021-05-03T11:10:28Z</time>
      </trkpt>
      <trkpt lat="43.9806" lon="5.24773">
        <ele>657.2</ele>
        <time>2021-05-03T11:10:51Z</time>
      </trkpt>
      <trkpt lat="43.98068" lon="5.2476">
        <ele>658.16</ele>
        <time>2021-05-03T11:11:03Z</time>
      </trkpt>
      <trkpt lat="43.98071" lon="5.24746">
        <ele>658.64</ele>
        <time>2021-05-03T11:11:13Z</time>
      </trkpt>
      <trkpt lat="43.98078" lon="5.24738">
        <ele>659.12</ele>
        <time>2021-05-03T11:11:19Z</time>
      </trkpt>
      <trkpt lat="43.98085" lon="5.24727">
        <ele>660.08</ele>
        <time>2021-05-03T11:11:30Z</time>
      </trkpt>
      <trkpt lat="43.98086" lon="5.24726">
        <ele>660.08</ele>
        <time>2021-05-03T11:11:31Z</time>
      </trkpt>
      <trkpt lat="43.98094" lon="5.24707">
        <ele>660.08</ele>
        <time>2021-05-03T11:11:43Z</time>
      </trkpt>
      <trkpt lat="43.98105" lon="5.24696">
        <ele>660.56</ele>
        <time>2021-05-03T11:11:54Z</time>
      </trkpt>
      <trkpt lat="43.98106" lon="5.24695">
        <ele>660.56</ele>
        <time>2021-05-03T11:11:55Z</time>
      </trkpt>
      <trkpt lat="43.98107" lon="5.24694">
        <ele>660.56</ele>
        <time>2021-05-03T11:11:56Z</time>
      </trkpt>
      <trkpt lat="43.98117" lon="5.24678">
        <ele>661.52</ele>
        <time>2021-05-03T11:12:11Z</time>
      </trkpt>
      <trkpt lat="43.9813" lon="5.24665">
        <ele>660.56</ele>
        <time>2021-05-03T11:12:28Z</time>
      </trkpt>
      <trkpt lat="43.98138" lon="5.24649">
        <ele>660.08</ele>
        <time>2021-05-03T11:12:41Z</time>
      </trkpt>
      <trkpt lat="43.98152" lon="5.24619">
        <ele>659.6</ele>
        <time>2021-05-03T11:13:03Z</time>
      </trkpt>
      <trkpt lat="43.98157" lon="5.24599">
        <ele>659.12</ele>
        <time>2021-05-03T11:13:17Z</time>
      </trkpt>
      <trkpt lat="43.9816" lon="5.24592">
        <ele>659.12</ele>
        <time>2021-05-03T11:13:22Z</time>
      </trkpt>
      <trkpt lat="43.9816" lon="5.2459">
        <ele>659.12</ele>
        <time>2021-05-03T11:13:23Z</time>
      </trkpt>
      <trkpt lat="43.98171" lon="5.2459">
        <ele>659.12</ele>
        <time>2021-05-03T11:13:30Z</time>
      </trkpt>
      <trkpt lat="43.9817" lon="5.24587">
        <ele>658.64</ele>
        <time>2021-05-03T11:13:53Z</time>
      </trkpt>
      <trkpt lat="43.98169" lon="5.24587">
        <ele>658.16</ele>
        <time>2021-05-03T11:14:31Z</time>
      </trkpt>
      <trkpt lat="43.98172" lon="5.24586">
        <ele>658.16</ele>
        <time>2021-05-03T11:15:04Z</time>
      </trkpt>
      <trkpt lat="43.98173" lon="5.24588">
        <ele>658.16</ele>
        <time>2021-05-03T11:15:35Z</time>
      </trkpt>
      <trkpt lat="43.98183" lon="5.24583">
        <ele>658.64</ele>
        <time>2021-05-03T11:15:45Z</time>
      </trkpt>
      <trkpt lat="43.98189" lon="5.2458">
        <ele>659.6</ele>
        <time>2021-05-03T11:15:49Z</time>
      </trkpt>
      <trkpt lat="43.9819" lon="5.24579">
        <ele>660.08</ele>
        <time>2021-05-03T11:15:50Z</time>
      </trkpt>
      <trkpt lat="43.98197" lon="5.24575">
        <ele>659.6</ele>
        <time>2021-05-03T11:15:56Z</time>
      </trkpt>
      <trkpt lat="43.98198" lon="5.24573">
        <ele>659.6</ele>
        <time>2021-05-03T11:15:57Z</time>
      </trkpt>
      <trkpt lat="43.98198" lon="5.24571">
        <ele>659.6</ele>
        <time>2021-05-03T11:15:58Z</time>
      </trkpt>
      <trkpt lat="43.98199" lon="5.24567">
        <ele>659.6</ele>
        <time>2021-05-03T11:16:00Z</time>
      </trkpt>
      <trkpt lat="43.98199" lon="5.24565">
        <ele>659.6</ele>
        <time>2021-05-03T11:16:01Z</time>
      </trkpt>
      <trkpt lat="43.98199" lon="5.24563">
        <ele>659.6</ele>
        <time>2021-05-03T11:16:02Z</time>
      </trkpt>
      <trkpt lat="43.982" lon="5.24556">
        <ele>659.12</ele>
        <time>2021-05-03T11:16:06Z</time>
      </trkpt>
      <trkpt lat="43.982" lon="5.24555">
        <ele>659.12</ele>
        <time>2021-05-03T11:16:07Z</time>
      </trkpt>
      <trkpt lat="43.98198" lon="5.24549">
        <ele>658.64</ele>
        <time>2021-05-03T11:16:13Z</time>
      </trkpt>
      <trkpt lat="43.98187" lon="5.2455">
        <ele>659.6</ele>
        <time>2021-05-03T11:16:25Z</time>
      </trkpt>
      <trkpt lat="43.98172" lon="5.24555">
        <ele>660.08</ele>
        <time>2021-05-03T11:16:39Z</time>
      </trkpt>
      <trkpt lat="43.98149" lon="5.24562">
        <ele>660.56</ele>
        <time>2021-05-03T11:16:57Z</time>
      </trkpt>
      <trkpt lat="43.98142" lon="5.24564">
        <ele>660.56</ele>
        <time>2021-05-03T11:17:02Z</time>
      </trkpt>
      <trkpt lat="43.98139" lon="5.24563">
        <ele>660.56</ele>
        <time>2021-05-03T11:17:04Z</time>
      </trkpt>
      <trkpt lat="43.98138" lon="5.24563">
        <ele>660.56</ele>
        <time>2021-05-03T11:17:05Z</time>
      </trkpt>
      <trkpt lat="43.98137" lon="5.24564">
        <ele>660.56</ele>
        <time>2021-05-03T11:17:06Z</time>
      </trkpt>
      <trkpt lat="43.98135" lon="5.24564">
        <ele>660.56</ele>
        <time>2021-05-03T11:17:07Z</time>
      </trkpt>
      <trkpt lat="43.98132" lon="5.24566">
        <ele>660.56</ele>
        <time>2021-05-03T11:17:09Z</time>
      </trkpt>
      <trkpt lat="43.98131" lon="5.24566">
        <ele>661.04</ele>
        <time>2021-05-03T11:17:10Z</time>
      </trkpt>
      <trkpt lat="43.98119" lon="5.24569">
        <ele>661.52</ele>
        <time>2021-05-03T11:17:20Z</time>
      </trkpt>
      <trkpt lat="43.98118" lon="5.2457">
        <ele>661.52</ele>
        <time>2021-05-03T11:17:21Z</time>
      </trkpt>
      <trkpt lat="43.98109" lon="5.24571">
        <ele>661.52</ele>
        <time>2021-05-03T11:17:29Z</time>
      </trkpt>
      <trkpt lat="43.98106" lon="5.24571">
        <ele>661.52</ele>
        <time>2021-05-03T11:17:31Z</time>
      </trkpt>
      <trkpt lat="43.98105" lon="5.24572">
        <ele>661.52</ele>
        <time>2021-05-03T11:17:32Z</time>
      </trkpt>
      <trkpt lat="43.98098" lon="5.24573">
        <ele>661.52</ele>
        <time>2021-05-03T11:17:37Z</time>
      </trkpt>
      <trkpt lat="43.98089" lon="5.24578">
        <ele>662.01</ele>
        <time>2021-05-03T11:17:44Z</time>
      </trkpt>
      <trkpt lat="43.9808" lon="5.24581">
        <ele>662.97</ele>
        <time>2021-05-03T11:17:50Z</time>
      </trkpt>
      <trkpt lat="43.98078" lon="5.24582">
        <ele>662.97</ele>
        <time>2021-05-03T11:17:51Z</time>
      </trkpt>
      <trkpt lat="43.98077" lon="5.24583">
        <ele>662.97</ele>
        <time>2021-05-03T11:17:52Z</time>
      </trkpt>
      <trkpt lat="43.98075" lon="5.24584">
        <ele>662.97</ele>
        <time>2021-05-03T11:17:53Z</time>
      </trkpt>
      <trkpt lat="43.98073" lon="5.24585">
        <ele>662.97</ele>
        <time>2021-05-03T11:17:54Z</time>
      </trkpt>
      <trkpt lat="43.98057" lon="5.24585">
        <ele>662.49</ele>
        <time>2021-05-03T11:18:07Z</time>
      </trkpt>
      <trkpt lat="43.9804" lon="5.24589">
        <ele>662.49</ele>
        <time>2021-05-03T11:18:20Z</time>
      </trkpt>
      <trkpt lat="43.98032" lon="5.24594">
        <ele>662.97</ele>
        <time>2021-05-03T11:18:27Z</time>
      </trkpt>
      <trkpt lat="43.98029" lon="5.24594">
        <ele>662.49</ele>
        <time>2021-05-03T11:18:30Z</time>
      </trkpt>
      <trkpt lat="43.98018" lon="5.24595">
        <ele>662.97</ele>
        <time>2021-05-03T11:18:41Z</time>
      </trkpt>
      <trkpt lat="43.98008" lon="5.24598">
        <ele>662.97</ele>
        <time>2021-05-03T11:18:51Z</time>
      </trkpt>
      <trkpt lat="43.97983" lon="5.24606">
        <ele>662.01</ele>
        <time>2021-05-03T11:19:11Z</time>
      </trkpt>
      <trkpt lat="43.97961" lon="5.24604">
        <ele>660.56</ele>
        <time>2021-05-03T11:19:28Z</time>
      </trkpt>
      <trkpt lat="43.97946" lon="5.24606">
        <ele>660.56</ele>
        <time>2021-05-03T11:19:42Z</time>
      </trkpt>
      <trkpt lat="43.97945" lon="5.24606">
        <ele>660.56</ele>
        <time>2021-05-03T11:19:43Z</time>
      </trkpt>
      <trkpt lat="43.97932" lon="5.24607">
        <ele>660.08</ele>
        <time>2021-05-03T11:19:54Z</time>
      </trkpt>
      <trkpt lat="43.97931" lon="5.24606">
        <ele>660.08</ele>
        <time>2021-05-03T11:19:55Z</time>
      </trkpt>
      <trkpt lat="43.97924" lon="5.24603">
        <ele>659.6</ele>
        <time>2021-05-03T11:20:15Z</time>
      </trkpt>
      <trkpt lat="43.97922" lon="5.24607">
        <ele>658.64</ele>
        <time>2021-05-03T11:20:46Z</time>
      </trkpt>
      <trkpt lat="43.97908" lon="5.24607">
        <ele>658.16</ele>
        <time>2021-05-03T11:21:04Z</time>
      </trkpt>
      <trkpt lat="43.97897" lon="5.24608">
        <ele>657.68</ele>
        <time>2021-05-03T11:21:14Z</time>
      </trkpt>
      <trkpt lat="43.97886" lon="5.24605">
        <ele>657.2</ele>
        <time>2021-05-03T11:21:23Z</time>
      </trkpt>
      <trkpt lat="43.97878" lon="5.24597">
        <ele>656.24</ele>
        <time>2021-05-03T11:21:33Z</time>
      </trkpt>
      <trkpt lat="43.97869" lon="5.24589">
        <ele>654.8</ele>
        <time>2021-05-03T11:21:43Z</time>
      </trkpt>
      <trkpt lat="43.97862" lon="5.24581">
        <ele>653.83</ele>
        <time>2021-05-03T11:21:53Z</time>
      </trkpt>
      <trkpt lat="43.97854" lon="5.24567">
        <ele>652.87</ele>
        <time>2021-05-03T11:22:04Z</time>
      </trkpt>
      <trkpt lat="43.97849" lon="5.24548">
        <ele>653.35</ele>
        <time>2021-05-03T11:22:17Z</time>
      </trkpt>
      <trkpt lat="43.97848" lon="5.24546">
        <ele>653.35</ele>
        <time>2021-05-03T11:22:18Z</time>
      </trkpt>
      <trkpt lat="43.97848" lon="5.24544">
        <ele>653.35</ele>
        <time>2021-05-03T11:22:19Z</time>
      </trkpt>
      <trkpt lat="43.97846" lon="5.2454">
        <ele>653.35</ele>
        <time>2021-05-03T11:22:21Z</time>
      </trkpt>
      <trkpt lat="43.97841" lon="5.24526">
        <ele>653.35</ele>
        <time>2021-05-03T11:22:30Z</time>
      </trkpt>
      <trkpt lat="43.97838" lon="5.24515">
        <ele>653.35</ele>
        <time>2021-05-03T11:22:38Z</time>
      </trkpt>
      <trkpt lat="43.97824" lon="5.24493">
        <ele>653.35</ele>
        <time>2021-05-03T11:22:55Z</time>
      </trkpt>
      <trkpt lat="43.97804" lon="5.24468">
        <ele>652.87</ele>
        <time>2021-05-03T11:23:16Z</time>
      </trkpt>
      <trkpt lat="43.9779" lon="5.24426">
        <ele>652.39</ele>
        <time>2021-05-03T11:23:40Z</time>
      </trkpt>
      <trkpt lat="43.97792" lon="5.24398">
        <ele>651.43</ele>
        <time>2021-05-03T11:23:55Z</time>
      </trkpt>
      <trkpt lat="43.97797" lon="5.24372">
        <ele>651.43</ele>
        <time>2021-05-03T11:24:10Z</time>
      </trkpt>
      <trkpt lat="43.97796" lon="5.24345">
        <ele>649.99</ele>
        <time>2021-05-03T11:24:26Z</time>
      </trkpt>
      <trkpt lat="43.97797" lon="5.2434">
        <ele>649.03</ele>
        <time>2021-05-03T11:24:30Z</time>
      </trkpt>
      <trkpt lat="43.978" lon="5.2433">
        <ele>649.03</ele>
        <time>2021-05-03T11:24:37Z</time>
      </trkpt>
      <trkpt lat="43.978" lon="5.24328">
        <ele>649.03</ele>
        <time>2021-05-03T11:24:38Z</time>
      </trkpt>
      <trkpt lat="43.97801" lon="5.24326">
        <ele>648.55</ele>
        <time>2021-05-03T11:24:40Z</time>
      </trkpt>
      <trkpt lat="43.97806" lon="5.24318">
        <ele>648.55</ele>
        <time>2021-05-03T11:24:45Z</time>
      </trkpt>
      <trkpt lat="43.97808" lon="5.24316">
        <ele>648.07</ele>
        <time>2021-05-03T11:24:47Z</time>
      </trkpt>
      <trkpt lat="43.97808" lon="5.24311">
        <ele>648.07</ele>
        <time>2021-05-03T11:24:50Z</time>
      </trkpt>
      <trkpt lat="43.97808" lon="5.24305">
        <ele>648.55</ele>
        <time>2021-05-03T11:24:55Z</time>
      </trkpt>
      <trkpt lat="43.97808" lon="5.24304">
        <ele>648.55</ele>
        <time>2021-05-03T11:24:56Z</time>
      </trkpt>
      <trkpt lat="43.97807" lon="5.24303">
        <ele>648.55</ele>
        <time>2021-05-03T11:24:57Z</time>
      </trkpt>
      <trkpt lat="43.97806" lon="5.24302">
        <ele>648.55</ele>
        <time>2021-05-03T11:24:58Z</time>
      </trkpt>
      <trkpt lat="43.97805" lon="5.24302">
        <ele>648.55</ele>
        <time>2021-05-03T11:24:59Z</time>
      </trkpt>
      <trkpt lat="43.97804" lon="5.24301">
        <ele>648.55</ele>
        <time>2021-05-03T11:25:00Z</time>
      </trkpt>
      <trkpt lat="43.97804" lon="5.24301">
        <ele>648.55</ele>
        <time>2021-05-03T11:25:01Z</time>
      </trkpt>
      <trkpt lat="43.97795" lon="5.243">
        <ele>647.1</ele>
        <time>2021-05-03T11:25:14Z</time>
      </trkpt>
      <trkpt lat="43.97782" lon="5.24302">
        <ele>646.14</ele>
        <time>2021-05-03T11:25:25Z</time>
      </trkpt>
      <trkpt lat="43.97762" lon="5.24306">
        <ele>645.18</ele>
        <time>2021-05-03T11:25:40Z</time>
      </trkpt>
      <trkpt lat="43.97761" lon="5.24306">
        <ele>645.18</ele>
        <time>2021-05-03T11:25:41Z</time>
      </trkpt>
      <trkpt lat="43.9776" lon="5.24306">
        <ele>645.18</ele>
        <time>2021-05-03T11:25:42Z</time>
      </trkpt>
      <trkpt lat="43.97758" lon="5.24306">
        <ele>645.18</ele>
        <time>2021-05-03T11:25:43Z</time>
      </trkpt>
      <trkpt lat="43.97757" lon="5.24305">
        <ele>645.18</ele>
        <time>2021-05-03T11:25:44Z</time>
      </trkpt>
      <trkpt lat="43.97753" lon="5.24304">
        <ele>645.18</ele>
        <time>2021-05-03T11:25:47Z</time>
      </trkpt>
      <trkpt lat="43.97752" lon="5.24304">
        <ele>645.18</ele>
        <time>2021-05-03T11:25:48Z</time>
      </trkpt>
      <trkpt lat="43.97739" lon="5.24303">
        <ele>644.22</ele>
        <time>2021-05-03T11:25:59Z</time>
      </trkpt>
      <trkpt lat="43.97729" lon="5.24303">
        <ele>643.26</ele>
        <time>2021-05-03T11:26:09Z</time>
      </trkpt>
      <trkpt lat="43.97719" lon="5.24299">
        <ele>642.78</ele>
        <time>2021-05-03T11:26:19Z</time>
      </trkpt>
      <trkpt lat="43.97708" lon="5.24285">
        <ele>641.82</ele>
        <time>2021-05-03T11:26:34Z</time>
      </trkpt>
      <trkpt lat="43.97703" lon="5.24281">
        <ele>641.82</ele>
        <time>2021-05-03T11:26:38Z</time>
      </trkpt>
      <trkpt lat="43.977" lon="5.24279">
        <ele>641.82</ele>
        <time>2021-05-03T11:26:41Z</time>
      </trkpt>
      <trkpt lat="43.97691" lon="5.24266">
        <ele>640.86</ele>
        <time>2021-05-03T11:26:52Z</time>
      </trkpt>
      <trkpt lat="43.97685" lon="5.24255">
        <ele>640.86</ele>
        <time>2021-05-03T11:26:58Z</time>
      </trkpt>
      <trkpt lat="43.97684" lon="5.24253">
        <ele>640.86</ele>
        <time>2021-05-03T11:26:59Z</time>
      </trkpt>
      <trkpt lat="43.97675" lon="5.2423">
        <ele>639.41</ele>
        <time>2021-05-03T11:27:14Z</time>
      </trkpt>
      <trkpt lat="43.97671" lon="5.2422">
        <ele>638.93</ele>
        <time>2021-05-03T11:27:24Z</time>
      </trkpt>
      <trkpt lat="43.97666" lon="5.24202">
        <ele>637.97</ele>
        <time>2021-05-03T11:27:38Z</time>
      </trkpt>
      <trkpt lat="43.97662" lon="5.24192">
        <ele>637.97</ele>
        <time>2021-05-03T11:27:44Z</time>
      </trkpt>
      <trkpt lat="43.9766" lon="5.24186">
        <ele>637.01</ele>
        <time>2021-05-03T11:28:00Z</time>
      </trkpt>
      <trkpt lat="43.9766" lon="5.24185">
        <ele>635.57</ele>
        <time>2021-05-03T11:28:16Z</time>
      </trkpt>
      <trkpt lat="43.97661" lon="5.24186">
        <ele>638.93</ele>
        <time>2021-05-03T11:28:21Z</time>
      </trkpt>
      <trkpt lat="43.97658" lon="5.24184">
        <ele>637.97</ele>
        <time>2021-05-03T11:28:48Z</time>
      </trkpt>
      <trkpt lat="43.97658" lon="5.24186">
        <ele>637.97</ele>
        <time>2021-05-03T11:29:17Z</time>
      </trkpt>
      <trkpt lat="43.97658" lon="5.24185">
        <ele>637.97</ele>
        <time>2021-05-03T11:29:48Z</time>
      </trkpt>
      <trkpt lat="43.97657" lon="5.24182">
        <ele>637.97</ele>
        <time>2021-05-03T11:30:12Z</time>
      </trkpt>
      <trkpt lat="43.97654" lon="5.24178">
        <ele>637.97</ele>
        <time>2021-05-03T11:30:22Z</time>
      </trkpt>
      <trkpt lat="43.9765" lon="5.24159">
        <ele>637.01</ele>
        <time>2021-05-03T11:30:34Z</time>
      </trkpt>
      <trkpt lat="43.97647" lon="5.24145">
        <ele>637.01</ele>
        <time>2021-05-03T11:30:42Z</time>
      </trkpt>
      <trkpt lat="43.9764" lon="5.24104">
        <ele>637.97</ele>
        <time>2021-05-03T11:31:04Z</time>
      </trkpt>
      <trkpt lat="43.97635" lon="5.24074">
        <ele>638.45</ele>
        <time>2021-05-03T11:31:22Z</time>
      </trkpt>
      <trkpt lat="43.97626" lon="5.24055">
        <ele>638.93</ele>
        <time>2021-05-03T11:31:37Z</time>
      </trkpt>
      <trkpt lat="43.97625" lon="5.24051">
        <ele>639.41</ele>
        <time>2021-05-03T11:31:39Z</time>
      </trkpt>
      <trkpt lat="43.97623" lon="5.2405">
        <ele>639.41</ele>
        <time>2021-05-03T11:31:40Z</time>
      </trkpt>
      <trkpt lat="43.97621" lon="5.24049">
        <ele>639.41</ele>
        <time>2021-05-03T11:31:41Z</time>
      </trkpt>
      <trkpt lat="43.97616" lon="5.24034">
        <ele>639.41</ele>
        <time>2021-05-03T11:31:54Z</time>
      </trkpt>
      <trkpt lat="43.97613" lon="5.24024">
        <ele>638.93</ele>
        <time>2021-05-03T11:32:08Z</time>
      </trkpt>
      <trkpt lat="43.97607" lon="5.24017">
        <ele>638.93</ele>
        <time>2021-05-03T11:32:33Z</time>
      </trkpt>
      <trkpt lat="43.976" lon="5.2398">
        <ele>639.41</ele>
        <time>2021-05-03T11:32:58Z</time>
      </trkpt>
      <trkpt lat="43.97602" lon="5.23964">
        <ele>639.89</ele>
        <time>2021-05-03T11:33:10Z</time>
      </trkpt>
      <trkpt lat="43.97609" lon="5.23927">
        <ele>642.78</ele>
        <time>2021-05-03T11:33:36Z</time>
      </trkpt>
      <trkpt lat="43.97618" lon="5.23912">
        <ele>643.26</ele>
        <time>2021-05-03T11:33:48Z</time>
      </trkpt>
      <trkpt lat="43.97619" lon="5.23911">
        <ele>643.26</ele>
        <time>2021-05-03T11:33:49Z</time>
      </trkpt>
      <trkpt lat="43.97621" lon="5.23911">
        <ele>643.26</ele>
        <time>2021-05-03T11:33:50Z</time>
      </trkpt>
      <trkpt lat="43.97622" lon="5.2391">
        <ele>643.26</ele>
        <time>2021-05-03T11:33:51Z</time>
      </trkpt>
      <trkpt lat="43.97624" lon="5.23909">
        <ele>643.74</ele>
        <time>2021-05-03T11:33:52Z</time>
      </trkpt>
      <trkpt lat="43.97625" lon="5.23909">
        <ele>643.74</ele>
        <time>2021-05-03T11:33:53Z</time>
      </trkpt>
      <trkpt lat="43.97626" lon="5.23908">
        <ele>643.74</ele>
        <time>2021-05-03T11:33:54Z</time>
      </trkpt>
      <trkpt lat="43.97628" lon="5.23907">
        <ele>643.74</ele>
        <time>2021-05-03T11:33:55Z</time>
      </trkpt>
      <trkpt lat="43.97635" lon="5.23901">
        <ele>643.74</ele>
        <time>2021-05-03T11:34:02Z</time>
      </trkpt>
      <trkpt lat="43.97644" lon="5.23895">
        <ele>643.74</ele>
        <time>2021-05-03T11:34:10Z</time>
      </trkpt>
      <trkpt lat="43.97665" lon="5.23866">
        <ele>642.78</ele>
        <time>2021-05-03T11:34:34Z</time>
      </trkpt>
      <trkpt lat="43.9767" lon="5.23859">
        <ele>642.78</ele>
        <time>2021-05-03T11:34:40Z</time>
      </trkpt>
      <trkpt lat="43.97671" lon="5.23858">
        <ele>642.78</ele>
        <time>2021-05-03T11:34:41Z</time>
      </trkpt>
      <trkpt lat="43.97673" lon="5.23858">
        <ele>642.78</ele>
        <time>2021-05-03T11:34:42Z</time>
      </trkpt>
      <trkpt lat="43.97683" lon="5.23851">
        <ele>642.78</ele>
        <time>2021-05-03T11:34:52Z</time>
      </trkpt>
      <trkpt lat="43.97684" lon="5.23849">
        <ele>642.78</ele>
        <time>2021-05-03T11:34:53Z</time>
      </trkpt>
      <trkpt lat="43.97685" lon="5.23849">
        <ele>642.78</ele>
        <time>2021-05-03T11:34:54Z</time>
      </trkpt>
      <trkpt lat="43.97687" lon="5.23847">
        <ele>643.26</ele>
        <time>2021-05-03T11:34:56Z</time>
      </trkpt>
      <trkpt lat="43.97688" lon="5.23845">
        <ele>643.26</ele>
        <time>2021-05-03T11:34:57Z</time>
      </trkpt>
      <trkpt lat="43.97693" lon="5.23841">
        <ele>643.26</ele>
        <time>2021-05-03T11:35:02Z</time>
      </trkpt>
      <trkpt lat="43.97695" lon="5.2384">
        <ele>643.74</ele>
        <time>2021-05-03T11:35:03Z</time>
      </trkpt>
      <trkpt lat="43.97696" lon="5.23839">
        <ele>643.74</ele>
        <time>2021-05-03T11:35:04Z</time>
      </trkpt>
      <trkpt lat="43.97698" lon="5.23839">
        <ele>643.74</ele>
        <time>2021-05-03T11:35:05Z</time>
      </trkpt>
      <trkpt lat="43.97699" lon="5.23839">
        <ele>643.74</ele>
        <time>2021-05-03T11:35:06Z</time>
      </trkpt>
      <trkpt lat="43.977" lon="5.23839">
        <ele>643.74</ele>
        <time>2021-05-03T11:35:07Z</time>
      </trkpt>
      <trkpt lat="43.97701" lon="5.23839">
        <ele>643.74</ele>
        <time>2021-05-03T11:35:08Z</time>
      </trkpt>
      <trkpt lat="43.97719" lon="5.23835">
        <ele>644.7</ele>
        <time>2021-05-03T11:35:24Z</time>
      </trkpt>
      <trkpt lat="43.97728" lon="5.23833">
        <ele>645.18</ele>
        <time>2021-05-03T11:35:34Z</time>
      </trkpt>
      <trkpt lat="43.97744" lon="5.2383">
        <ele>646.62</ele>
        <time>2021-05-03T11:35:50Z</time>
      </trkpt>
      <trkpt lat="43.97757" lon="5.2383">
        <ele>647.59</ele>
        <time>2021-05-03T11:36:02Z</time>
      </trkpt>
      <trkpt lat="43.97768" lon="5.2382">
        <ele>648.07</ele>
        <time>2021-05-03T11:36:16Z</time>
      </trkpt>
      <trkpt lat="43.97768" lon="5.23819">
        <ele>648.07</ele>
        <time>2021-05-03T11:36:17Z</time>
      </trkpt>
      <trkpt lat="43.97763" lon="5.23806">
        <ele>648.07</ele>
        <time>2021-05-03T11:36:31Z</time>
      </trkpt>
      <trkpt lat="43.97759" lon="5.23803">
        <ele>648.07</ele>
        <time>2021-05-03T11:36:34Z</time>
      </trkpt>
      <trkpt lat="43.97757" lon="5.23801">
        <ele>648.07</ele>
        <time>2021-05-03T11:36:36Z</time>
      </trkpt>
      <trkpt lat="43.97755" lon="5.238">
        <ele>648.07</ele>
        <time>2021-05-03T11:36:37Z</time>
      </trkpt>
      <trkpt lat="43.97753" lon="5.23798">
        <ele>648.07</ele>
        <time>2021-05-03T11:36:39Z</time>
      </trkpt>
      <trkpt lat="43.97751" lon="5.23797">
        <ele>648.07</ele>
        <time>2021-05-03T11:36:40Z</time>
      </trkpt>
      <trkpt lat="43.9775" lon="5.23797">
        <ele>648.07</ele>
        <time>2021-05-03T11:36:41Z</time>
      </trkpt>
      <trkpt lat="43.97749" lon="5.23796">
        <ele>648.07</ele>
        <time>2021-05-03T11:36:42Z</time>
      </trkpt>
      <trkpt lat="43.97742" lon="5.23794">
        <ele>647.59</ele>
        <time>2021-05-03T11:36:47Z</time>
      </trkpt>
      <trkpt lat="43.97741" lon="5.23794">
        <ele>647.59</ele>
        <time>2021-05-03T11:36:48Z</time>
      </trkpt>
      <trkpt lat="43.97735" lon="5.23795">
        <ele>646.62</ele>
        <time>2021-05-03T11:36:54Z</time>
      </trkpt>
      <trkpt lat="43.97728" lon="5.23796">
        <ele>646.14</ele>
        <time>2021-05-03T11:36:59Z</time>
      </trkpt>
      <trkpt lat="43.97721" lon="5.23794">
        <ele>646.14</ele>
        <time>2021-05-03T11:37:05Z</time>
      </trkpt>
      <trkpt lat="43.97719" lon="5.23794">
        <ele>646.14</ele>
        <time>2021-05-03T11:37:06Z</time>
      </trkpt>
      <trkpt lat="43.97718" lon="5.23794">
        <ele>645.66</ele>
        <time>2021-05-03T11:37:07Z</time>
      </trkpt>
      <trkpt lat="43.97709" lon="5.23791">
        <ele>645.18</ele>
        <time>2021-05-03T11:37:15Z</time>
      </trkpt>
      <trkpt lat="43.97702" lon="5.23789">
        <ele>645.18</ele>
        <time>2021-05-03T11:37:22Z</time>
      </trkpt>
      <trkpt lat="43.97699" lon="5.23788">
        <ele>645.18</ele>
        <time>2021-05-03T11:37:25Z</time>
      </trkpt>
      <trkpt lat="43.97698" lon="5.23788">
        <ele>645.18</ele>
        <time>2021-05-03T11:37:26Z</time>
      </trkpt>
      <trkpt lat="43.9769" lon="5.23787">
        <ele>644.22</ele>
        <time>2021-05-03T11:37:35Z</time>
      </trkpt>
      <trkpt lat="43.97678" lon="5.23781">
        <ele>645.66</ele>
        <time>2021-05-03T11:37:50Z</time>
      </trkpt>
      <trkpt lat="43.97661" lon="5.23778">
        <ele>646.62</ele>
        <time>2021-05-03T11:38:04Z</time>
      </trkpt>
      <trkpt lat="43.97654" lon="5.23774">
        <ele>647.1</ele>
        <time>2021-05-03T11:38:10Z</time>
      </trkpt>
      <trkpt lat="43.97642" lon="5.23764">
        <ele>646.62</ele>
        <time>2021-05-03T11:38:21Z</time>
      </trkpt>
      <trkpt lat="43.97625" lon="5.23756">
        <ele>645.66</ele>
        <time>2021-05-03T11:38:35Z</time>
      </trkpt>
      <trkpt lat="43.97609" lon="5.23744">
        <ele>643.74</ele>
        <time>2021-05-03T11:38:50Z</time>
      </trkpt>
      <trkpt lat="43.97603" lon="5.23737">
        <ele>643.26</ele>
        <time>2021-05-03T11:38:57Z</time>
      </trkpt>
      <trkpt lat="43.97602" lon="5.23736">
        <ele>642.78</ele>
        <time>2021-05-03T11:38:58Z</time>
      </trkpt>
      <trkpt lat="43.97583" lon="5.23724">
        <ele>642.3</ele>
        <time>2021-05-03T11:39:15Z</time>
      </trkpt>
      <trkpt lat="43.97566" lon="5.23718">
        <ele>642.78</ele>
        <time>2021-05-03T11:39:32Z</time>
      </trkpt>
      <trkpt lat="43.97553" lon="5.2371">
        <ele>641.82</ele>
        <time>2021-05-03T11:39:45Z</time>
      </trkpt>
      <trkpt lat="43.97544" lon="5.23702">
        <ele>640.38</ele>
        <time>2021-05-03T11:39:58Z</time>
      </trkpt>
      <trkpt lat="43.97544" lon="5.23701">
        <ele>637.49</ele>
        <time>2021-05-03T11:40:01Z</time>
      </trkpt>
      <trkpt lat="43.97543" lon="5.237">
        <ele>642.78</ele>
        <time>2021-05-03T11:40:07Z</time>
      </trkpt>
      <trkpt lat="43.97543" lon="5.23699">
        <ele>646.14</ele>
        <time>2021-05-03T11:40:09Z</time>
      </trkpt>
      <trkpt lat="43.97543" lon="5.23698">
        <ele>642.78</ele>
        <time>2021-05-03T11:40:16Z</time>
      </trkpt>
      <trkpt lat="43.97532" lon="5.23693">
        <ele>642.3</ele>
        <time>2021-05-03T11:40:38Z</time>
      </trkpt>
      <trkpt lat="43.97534" lon="5.23683">
        <ele>640.86</ele>
        <time>2021-05-03T11:40:56Z</time>
      </trkpt>
      <trkpt lat="43.97533" lon="5.23682">
        <ele>640.86</ele>
        <time>2021-05-03T11:41:57Z</time>
      </trkpt>
      <trkpt lat="43.97531" lon="5.23683">
        <ele>640.86</ele>
        <time>2021-05-03T11:42:23Z</time>
      </trkpt>
      <trkpt lat="43.97525" lon="5.2366">
        <ele>640.38</ele>
        <time>2021-05-03T11:42:42Z</time>
      </trkpt>
      <trkpt lat="43.97518" lon="5.23639">
        <ele>637.49</ele>
        <time>2021-05-03T11:43:03Z</time>
      </trkpt>
      <trkpt lat="43.97512" lon="5.23612">
        <ele>634.61</ele>
        <time>2021-05-03T11:43:24Z</time>
      </trkpt>
      <trkpt lat="43.97502" lon="5.23596">
        <ele>632.2</ele>
        <time>2021-05-03T11:43:40Z</time>
      </trkpt>
      <trkpt lat="43.97485" lon="5.23594">
        <ele>629.8</ele>
        <time>2021-05-03T11:44:01Z</time>
      </trkpt>
      <trkpt lat="43.97484" lon="5.23594">
        <ele>629.8</ele>
        <time>2021-05-03T11:44:02Z</time>
      </trkpt>
      <trkpt lat="43.97464" lon="5.23598">
        <ele>628.36</ele>
        <time>2021-05-03T11:44:17Z</time>
      </trkpt>
      <trkpt lat="43.97456" lon="5.236">
        <ele>627.4</ele>
        <time>2021-05-03T11:44:24Z</time>
      </trkpt>
      <trkpt lat="43.97439" lon="5.23604">
        <ele>624.99</ele>
        <time>2021-05-03T11:44:40Z</time>
      </trkpt>
      <trkpt lat="43.97426" lon="5.23607">
        <ele>623.07</ele>
        <time>2021-05-03T11:44:53Z</time>
      </trkpt>
      <trkpt lat="43.97407" lon="5.23613">
        <ele>620.67</ele>
        <time>2021-05-03T11:45:08Z</time>
      </trkpt>
      <trkpt lat="43.97395" lon="5.23614">
        <ele>619.71</ele>
        <time>2021-05-03T11:45:19Z</time>
      </trkpt>
      <trkpt lat="43.97371" lon="5.23617">
        <ele>616.82</ele>
        <time>2021-05-03T11:45:39Z</time>
      </trkpt>
      <trkpt lat="43.97359" lon="5.23618">
        <ele>615.86</ele>
        <time>2021-05-03T11:45:49Z</time>
      </trkpt>
      <trkpt lat="43.97349" lon="5.23617">
        <ele>615.38</ele>
        <time>2021-05-03T11:45:57Z</time>
      </trkpt>
      <trkpt lat="43.97343" lon="5.23615">
        <ele>615.38</ele>
        <time>2021-05-03T11:46:02Z</time>
      </trkpt>
      <trkpt lat="43.97339" lon="5.23614">
        <ele>614.9</ele>
        <time>2021-05-03T11:46:05Z</time>
      </trkpt>
      <trkpt lat="43.9732" lon="5.23614">
        <ele>614.42</ele>
        <time>2021-05-03T11:46:20Z</time>
      </trkpt>
      <trkpt lat="43.973" lon="5.23607">
        <ele>612.02</ele>
        <time>2021-05-03T11:46:37Z</time>
      </trkpt>
      <trkpt lat="43.9728" lon="5.23602">
        <ele>610.57</ele>
        <time>2021-05-03T11:46:54Z</time>
      </trkpt>
      <trkpt lat="43.97267" lon="5.23601">
        <ele>609.13</ele>
        <time>2021-05-03T11:47:06Z</time>
      </trkpt>
      <trkpt lat="43.97245" lon="5.23595">
        <ele>607.69</ele>
        <time>2021-05-03T11:47:24Z</time>
      </trkpt>
      <trkpt lat="43.97231" lon="5.23593">
        <ele>606.25</ele>
        <time>2021-05-03T11:47:39Z</time>
      </trkpt>
      <trkpt lat="43.9721" lon="5.23588">
        <ele>602.88</ele>
        <time>2021-05-03T11:48:02Z</time>
      </trkpt>
      <trkpt lat="43.97194" lon="5.23582">
        <ele>600.48</ele>
        <time>2021-05-03T11:48:17Z</time>
      </trkpt>
      <trkpt lat="43.97174" lon="5.23572">
        <ele>598.56</ele>
        <time>2021-05-03T11:48:36Z</time>
      </trkpt>
      <trkpt lat="43.9716" lon="5.23561">
        <ele>595.19</ele>
        <time>2021-05-03T11:48:51Z</time>
      </trkpt>
      <trkpt lat="43.97159" lon="5.2356">
        <ele>594.71</ele>
        <time>2021-05-03T11:48:52Z</time>
      </trkpt>
      <trkpt lat="43.97154" lon="5.23552">
        <ele>597.6</ele>
        <time>2021-05-03T11:48:56Z</time>
      </trkpt>
      <trkpt lat="43.97152" lon="5.23549">
        <ele>598.56</ele>
        <time>2021-05-03T11:48:58Z</time>
      </trkpt>
      <trkpt lat="43.97142" lon="5.23543">
        <ele>597.12</ele>
        <time>2021-05-03T11:49:05Z</time>
      </trkpt>
      <trkpt lat="43.9714" lon="5.23541">
        <ele>596.64</ele>
        <time>2021-05-03T11:49:07Z</time>
      </trkpt>
      <trkpt lat="43.97128" lon="5.2353">
        <ele>595.19</ele>
        <time>2021-05-03T11:49:21Z</time>
      </trkpt>
      <trkpt lat="43.97118" lon="5.23512">
        <ele>594.23</ele>
        <time>2021-05-03T11:49:34Z</time>
      </trkpt>
      <trkpt lat="43.9711" lon="5.23501">
        <ele>593.75</ele>
        <time>2021-05-03T11:49:44Z</time>
      </trkpt>
      <trkpt lat="43.97098" lon="5.23497">
        <ele>592.79</ele>
        <time>2021-05-03T11:49:55Z</time>
      </trkpt>
      <trkpt lat="43.97095" lon="5.23495">
        <ele>592.79</ele>
        <time>2021-05-03T11:50:04Z</time>
      </trkpt>
      <trkpt lat="43.97095" lon="5.23493">
        <ele>592.31</ele>
        <time>2021-05-03T11:50:31Z</time>
      </trkpt>
      <trkpt lat="43.97094" lon="5.23493">
        <ele>592.79</ele>
        <time>2021-05-03T11:51:04Z</time>
      </trkpt>
      <trkpt lat="43.97095" lon="5.23493">
        <ele>592.31</ele>
        <time>2021-05-03T11:51:39Z</time>
      </trkpt>
      <trkpt lat="43.97096" lon="5.23491">
        <ele>592.31</ele>
        <time>2021-05-03T11:52:10Z</time>
      </trkpt>
      <trkpt lat="43.97095" lon="5.23491">
        <ele>592.31</ele>
        <time>2021-05-03T11:52:37Z</time>
      </trkpt>
      <trkpt lat="43.97093" lon="5.23492">
        <ele>592.31</ele>
        <time>2021-05-03T11:53:05Z</time>
      </trkpt>
      <trkpt lat="43.97089" lon="5.23492">
        <ele>592.31</ele>
        <time>2021-05-03T11:53:36Z</time>
      </trkpt>
      <trkpt lat="43.97087" lon="5.23486">
        <ele>592.31</ele>
        <time>2021-05-03T11:54:05Z</time>
      </trkpt>
      <trkpt lat="43.97085" lon="5.23485">
        <ele>592.31</ele>
        <time>2021-05-03T11:54:07Z</time>
      </trkpt>
      <trkpt lat="43.97083" lon="5.23484">
        <ele>592.31</ele>
        <time>2021-05-03T11:54:08Z</time>
      </trkpt>
      <trkpt lat="43.97082" lon="5.23484">
        <ele>592.31</ele>
        <time>2021-05-03T11:54:09Z</time>
      </trkpt>
      <trkpt lat="43.97081" lon="5.23484">
        <ele>592.31</ele>
        <time>2021-05-03T11:54:10Z</time>
      </trkpt>
      <trkpt lat="43.97079" lon="5.23484">
        <ele>592.31</ele>
        <time>2021-05-03T11:54:11Z</time>
      </trkpt>
      <trkpt lat="43.97068" lon="5.23482">
        <ele>590.87</ele>
        <time>2021-05-03T11:54:21Z</time>
      </trkpt>
      <trkpt lat="43.97067" lon="5.23481">
        <ele>590.87</ele>
        <time>2021-05-03T11:54:22Z</time>
      </trkpt>
      <trkpt lat="43.97065" lon="5.2348">
        <ele>590.87</ele>
        <time>2021-05-03T11:54:23Z</time>
      </trkpt>
      <trkpt lat="43.97064" lon="5.2348">
        <ele>590.87</ele>
        <time>2021-05-03T11:54:24Z</time>
      </trkpt>
      <trkpt lat="43.97061" lon="5.23478">
        <ele>590.39</ele>
        <time>2021-05-03T11:54:27Z</time>
      </trkpt>
      <trkpt lat="43.97044" lon="5.2347">
        <ele>588.46</ele>
        <time>2021-05-03T11:54:43Z</time>
      </trkpt>
      <trkpt lat="43.97018" lon="5.23459">
        <ele>585.58</ele>
        <time>2021-05-03T11:55:03Z</time>
      </trkpt>
      <trkpt lat="43.97005" lon="5.23449">
        <ele>583.66</ele>
        <time>2021-05-03T11:55:18Z</time>
      </trkpt>
      <trkpt lat="43.97002" lon="5.23447">
        <ele>583.18</ele>
        <time>2021-05-03T11:55:20Z</time>
      </trkpt>
      <trkpt lat="43.97001" lon="5.23446">
        <ele>583.18</ele>
        <time>2021-05-03T11:55:21Z</time>
      </trkpt>
      <trkpt lat="43.97001" lon="5.23444">
        <ele>583.18</ele>
        <time>2021-05-03T11:55:22Z</time>
      </trkpt>
      <trkpt lat="43.97" lon="5.23443">
        <ele>583.18</ele>
        <time>2021-05-03T11:55:23Z</time>
      </trkpt>
      <trkpt lat="43.96993" lon="5.23443">
        <ele>580.77</ele>
        <time>2021-05-03T11:55:30Z</time>
      </trkpt>
      <trkpt lat="43.96998" lon="5.23451">
        <ele>579.81</ele>
        <time>2021-05-03T11:55:36Z</time>
      </trkpt>
      <trkpt lat="43.97" lon="5.23454">
        <ele>579.33</ele>
        <time>2021-05-03T11:55:39Z</time>
      </trkpt>
      <trkpt lat="43.97001" lon="5.23456">
        <ele>579.33</ele>
        <time>2021-05-03T11:55:40Z</time>
      </trkpt>
      <trkpt lat="43.97002" lon="5.23457">
        <ele>579.33</ele>
        <time>2021-05-03T11:55:41Z</time>
      </trkpt>
      <trkpt lat="43.97012" lon="5.23471">
        <ele>578.85</ele>
        <time>2021-05-03T11:55:56Z</time>
      </trkpt>
      <trkpt lat="43.97019" lon="5.23479">
        <ele>577.89</ele>
        <time>2021-05-03T11:56:09Z</time>
      </trkpt>
      <trkpt lat="43.97021" lon="5.23481">
        <ele>577.89</ele>
        <time>2021-05-03T11:56:11Z</time>
      </trkpt>
      <trkpt lat="43.97022" lon="5.23482">
        <ele>577.89</ele>
        <time>2021-05-03T11:56:12Z</time>
      </trkpt>
      <trkpt lat="43.97023" lon="5.23483">
        <ele>577.89</ele>
        <time>2021-05-03T11:56:13Z</time>
      </trkpt>
      <trkpt lat="43.97024" lon="5.23484">
        <ele>577.41</ele>
        <time>2021-05-03T11:56:14Z</time>
      </trkpt>
      <trkpt lat="43.97025" lon="5.23485">
        <ele>577.41</ele>
        <time>2021-05-03T11:56:15Z</time>
      </trkpt>
      <trkpt lat="43.97026" lon="5.23486">
        <ele>577.41</ele>
        <time>2021-05-03T11:56:16Z</time>
      </trkpt>
      <trkpt lat="43.97027" lon="5.23487">
        <ele>577.41</ele>
        <time>2021-05-03T11:56:17Z</time>
      </trkpt>
      <trkpt lat="43.97043" lon="5.23503">
        <ele>576.45</ele>
        <time>2021-05-03T11:56:33Z</time>
      </trkpt>
      <trkpt lat="43.97059" lon="5.23521">
        <ele>575.01</ele>
        <time>2021-05-03T11:56:51Z</time>
      </trkpt>
      <trkpt lat="43.97069" lon="5.23537">
        <ele>573.56</ele>
        <time>2021-05-03T11:57:05Z</time>
      </trkpt>
      <trkpt lat="43.97078" lon="5.23555">
        <ele>572.6</ele>
        <time>2021-05-03T11:57:29Z</time>
      </trkpt>
      <trkpt lat="43.97076" lon="5.23557">
        <ele>573.56</ele>
        <time>2021-05-03T11:57:58Z</time>
      </trkpt>
      <trkpt lat="43.97064" lon="5.23547">
        <ele>572.6</ele>
        <time>2021-05-03T11:58:16Z</time>
      </trkpt>
      <trkpt lat="43.97053" lon="5.23541">
        <ele>570.68</ele>
        <time>2021-05-03T11:58:30Z</time>
      </trkpt>
      <trkpt lat="43.97041" lon="5.23538">
        <ele>568.28</ele>
        <time>2021-05-03T11:58:45Z</time>
      </trkpt>
      <trkpt lat="43.97022" lon="5.23526">
        <ele>566.35</ele>
        <time>2021-05-03T11:59:06Z</time>
      </trkpt>
      <trkpt lat="43.97019" lon="5.23523">
        <ele>565.87</ele>
        <time>2021-05-03T11:59:08Z</time>
      </trkpt>
      <trkpt lat="43.97003" lon="5.23508">
        <ele>565.87</ele>
        <time>2021-05-03T11:59:25Z</time>
      </trkpt>
      <trkpt lat="43.96986" lon="5.23495">
        <ele>565.39</ele>
        <time>2021-05-03T11:59:51Z</time>
      </trkpt>
      <trkpt lat="43.96969" lon="5.23476">
        <ele>566.83</ele>
        <time>2021-05-03T12:00:12Z</time>
      </trkpt>
      <trkpt lat="43.96962" lon="5.23464">
        <ele>566.83</ele>
        <time>2021-05-03T12:00:23Z</time>
      </trkpt>
      <trkpt lat="43.96961" lon="5.23463">
        <ele>566.83</ele>
        <time>2021-05-03T12:00:24Z</time>
      </trkpt>
      <trkpt lat="43.96961" lon="5.23462">
        <ele>566.83</ele>
        <time>2021-05-03T12:00:25Z</time>
      </trkpt>
      <trkpt lat="43.9696" lon="5.23461">
        <ele>566.83</ele>
        <time>2021-05-03T12:00:26Z</time>
      </trkpt>
      <trkpt lat="43.9695" lon="5.23443">
        <ele>567.32</ele>
        <time>2021-05-03T12:00:42Z</time>
      </trkpt>
      <trkpt lat="43.96943" lon="5.2343">
        <ele>567.32</ele>
        <time>2021-05-03T12:00:54Z</time>
      </trkpt>
      <trkpt lat="43.9693" lon="5.23416">
        <ele>567.32</ele>
        <time>2021-05-03T12:01:05Z</time>
      </trkpt>
      <trkpt lat="43.96928" lon="5.23414">
        <ele>567.8</ele>
        <time>2021-05-03T12:01:06Z</time>
      </trkpt>
      <trkpt lat="43.96921" lon="5.23402">
        <ele>567.8</ele>
        <time>2021-05-03T12:01:17Z</time>
      </trkpt>
      <trkpt lat="43.9691" lon="5.23379">
        <ele>569.24</ele>
        <time>2021-05-03T12:01:32Z</time>
      </trkpt>
      <trkpt lat="43.96902" lon="5.23363">
        <ele>570.2</ele>
        <time>2021-05-03T12:01:44Z</time>
      </trkpt>
      <trkpt lat="43.96901" lon="5.23354">
        <ele>570.2</ele>
        <time>2021-05-03T12:01:49Z</time>
      </trkpt>
      <trkpt lat="43.96894" lon="5.23347">
        <ele>570.2</ele>
        <time>2021-05-03T12:02:00Z</time>
      </trkpt>
      <trkpt lat="43.96884" lon="5.23344">
        <ele>569.24</ele>
        <time>2021-05-03T12:02:23Z</time>
      </trkpt>
      <trkpt lat="43.96873" lon="5.23357">
        <ele>566.83</ele>
        <time>2021-05-03T12:02:46Z</time>
      </trkpt>
      <trkpt lat="43.96868" lon="5.23358">
        <ele>566.83</ele>
        <time>2021-05-03T12:02:53Z</time>
      </trkpt>
      <trkpt lat="43.96855" lon="5.23361">
        <ele>564.91</ele>
        <time>2021-05-03T12:03:07Z</time>
      </trkpt>
      <trkpt lat="43.96854" lon="5.23366">
        <ele>564.43</ele>
        <time>2021-05-03T12:03:11Z</time>
      </trkpt>
      <trkpt lat="43.96851" lon="5.23391">
        <ele>561.07</ele>
        <time>2021-05-03T12:03:29Z</time>
      </trkpt>
      <trkpt lat="43.9685" lon="5.23392">
        <ele>561.07</ele>
        <time>2021-05-03T12:03:30Z</time>
      </trkpt>
      <trkpt lat="43.96848" lon="5.23404">
        <ele>559.14</ele>
        <time>2021-05-03T12:03:39Z</time>
      </trkpt>
      <trkpt lat="43.96848" lon="5.23406">
        <ele>559.14</ele>
        <time>2021-05-03T12:03:40Z</time>
      </trkpt>
      <trkpt lat="43.96848" lon="5.23408">
        <ele>559.14</ele>
        <time>2021-05-03T12:03:41Z</time>
      </trkpt>
      <trkpt lat="43.96848" lon="5.2341">
        <ele>558.66</ele>
        <time>2021-05-03T12:03:42Z</time>
      </trkpt>
      <trkpt lat="43.96848" lon="5.23412">
        <ele>558.66</ele>
        <time>2021-05-03T12:03:43Z</time>
      </trkpt>
      <trkpt lat="43.96848" lon="5.23414">
        <ele>558.66</ele>
        <time>2021-05-03T12:03:44Z</time>
      </trkpt>
      <trkpt lat="43.96854" lon="5.23428">
        <ele>558.18</ele>
        <time>2021-05-03T12:03:57Z</time>
      </trkpt>
      <trkpt lat="43.96861" lon="5.23441">
        <ele>558.18</ele>
        <time>2021-05-03T12:04:16Z</time>
      </trkpt>
      <trkpt lat="43.96874" lon="5.23464">
        <ele>557.22</ele>
        <time>2021-05-03T12:04:33Z</time>
      </trkpt>
      <trkpt lat="43.96886" lon="5.23493">
        <ele>556.26</ele>
        <time>2021-05-03T12:04:55Z</time>
      </trkpt>
      <trkpt lat="43.96899" lon="5.23514">
        <ele>554.82</ele>
        <time>2021-05-03T12:05:12Z</time>
      </trkpt>
      <trkpt lat="43.9691" lon="5.23537">
        <ele>553.86</ele>
        <time>2021-05-03T12:05:28Z</time>
      </trkpt>
      <trkpt lat="43.96917" lon="5.23553">
        <ele>552.41</ele>
        <time>2021-05-03T12:05:42Z</time>
      </trkpt>
      <trkpt lat="43.96922" lon="5.23559">
        <ele>550.97</ele>
        <time>2021-05-03T12:05:53Z</time>
      </trkpt>
      <trkpt lat="43.96926" lon="5.23574">
        <ele>550.01</ele>
        <time>2021-05-03T12:06:05Z</time>
      </trkpt>
      <trkpt lat="43.96925" lon="5.236">
        <ele>548.09</ele>
        <time>2021-05-03T12:06:27Z</time>
      </trkpt>
      <trkpt lat="43.96917" lon="5.23611">
        <ele>547.13</ele>
        <time>2021-05-03T12:06:43Z</time>
      </trkpt>
      <trkpt lat="43.96916" lon="5.23613">
        <ele>546.65</ele>
        <time>2021-05-03T12:07:09Z</time>
      </trkpt>
      <trkpt lat="43.96916" lon="5.23615">
        <ele>546.65</ele>
        <time>2021-05-03T12:07:35Z</time>
      </trkpt>
      <trkpt lat="43.96919" lon="5.23616">
        <ele>547.13</ele>
        <time>2021-05-03T12:08:03Z</time>
      </trkpt>
      <trkpt lat="43.96887" lon="5.23652">
        <ele>541.84</ele>
        <time>2021-05-03T12:11:10Z</time>
      </trkpt>
      <trkpt lat="43.96879" lon="5.2365">
        <ele>541.84</ele>
        <time>2021-05-03T12:11:26Z</time>
      </trkpt>
      <trkpt lat="43.96878" lon="5.23651">
        <ele>541.84</ele>
        <time>2021-05-03T12:11:27Z</time>
      </trkpt>
      <trkpt lat="43.96876" lon="5.23652">
        <ele>541.84</ele>
        <time>2021-05-03T12:11:28Z</time>
      </trkpt>
      <trkpt lat="43.96854" lon="5.2366">
        <ele>540.4</ele>
        <time>2021-05-03T12:11:47Z</time>
      </trkpt>
      <trkpt lat="43.96838" lon="5.23666">
        <ele>537.99</ele>
        <time>2021-05-03T12:12:03Z</time>
      </trkpt>
      <trkpt lat="43.9683" lon="5.23664">
        <ele>537.51</ele>
        <time>2021-05-03T12:12:09Z</time>
      </trkpt>
      <trkpt lat="43.96826" lon="5.23661">
        <ele>537.03</ele>
        <time>2021-05-03T12:12:12Z</time>
      </trkpt>
      <trkpt lat="43.96814" lon="5.23651">
        <ele>534.63</ele>
        <time>2021-05-03T12:12:23Z</time>
      </trkpt>
      <trkpt lat="43.96796" lon="5.23651">
        <ele>532.23</ele>
        <time>2021-05-03T12:12:37Z</time>
      </trkpt>
      <trkpt lat="43.9678" lon="5.23663">
        <ele>529.82</ele>
        <time>2021-05-03T12:12:54Z</time>
      </trkpt>
      <trkpt lat="43.96769" lon="5.23673">
        <ele>527.9</ele>
        <time>2021-05-03T12:13:11Z</time>
      </trkpt>
      <trkpt lat="43.96752" lon="5.23687">
        <ele>525.02</ele>
        <time>2021-05-03T12:13:31Z</time>
      </trkpt>
      <trkpt lat="43.96747" lon="5.23689">
        <ele>523.58</ele>
        <time>2021-05-03T12:13:35Z</time>
      </trkpt>
      <trkpt lat="43.96746" lon="5.2369">
        <ele>523.58</ele>
        <time>2021-05-03T12:13:36Z</time>
      </trkpt>
      <trkpt lat="43.96729" lon="5.237">
        <ele>521.65</ele>
        <time>2021-05-03T12:13:51Z</time>
      </trkpt>
      <trkpt lat="43.96714" lon="5.23711">
        <ele>520.69</ele>
        <time>2021-05-03T12:14:09Z</time>
      </trkpt>
      <trkpt lat="43.96696" lon="5.23725">
        <ele>517.81</ele>
        <time>2021-05-03T12:14:29Z</time>
      </trkpt>
      <trkpt lat="43.96687" lon="5.23736">
        <ele>516.37</ele>
        <time>2021-05-03T12:14:47Z</time>
      </trkpt>
      <trkpt lat="43.96665" lon="5.23751">
        <ele>514.44</ele>
        <time>2021-05-03T12:15:09Z</time>
      </trkpt>
      <trkpt lat="43.96645" lon="5.23764">
        <ele>513</ele>
        <time>2021-05-03T12:15:28Z</time>
      </trkpt>
      <trkpt lat="43.96626" lon="5.23769">
        <ele>511.56</ele>
        <time>2021-05-03T12:15:45Z</time>
      </trkpt>
      <trkpt lat="43.96605" lon="5.23773">
        <ele>509.16</ele>
        <time>2021-05-03T12:16:05Z</time>
      </trkpt>
      <trkpt lat="43.96588" lon="5.23774">
        <ele>505.79</ele>
        <time>2021-05-03T12:16:23Z</time>
      </trkpt>
      <trkpt lat="43.96575" lon="5.2377">
        <ele>502.91</ele>
        <time>2021-05-03T12:16:36Z</time>
      </trkpt>
      <trkpt lat="43.9656" lon="5.23774">
        <ele>500.5</ele>
        <time>2021-05-03T12:16:54Z</time>
      </trkpt>
      <trkpt lat="43.96559" lon="5.23775">
        <ele>500.5</ele>
        <time>2021-05-03T12:16:55Z</time>
      </trkpt>
      <trkpt lat="43.96546" lon="5.23796">
        <ele>498.1</ele>
        <time>2021-05-03T12:17:13Z</time>
      </trkpt>
      <trkpt lat="43.96522" lon="5.23807">
        <ele>496.66</ele>
        <time>2021-05-03T12:17:32Z</time>
      </trkpt>
      <trkpt lat="43.96508" lon="5.23808">
        <ele>496.18</ele>
        <time>2021-05-03T12:17:50Z</time>
      </trkpt>
      <trkpt lat="43.96491" lon="5.23813">
        <ele>496.18</ele>
        <time>2021-05-03T12:18:08Z</time>
      </trkpt>
      <trkpt lat="43.96481" lon="5.23819">
        <ele>495.22</ele>
        <time>2021-05-03T12:18:19Z</time>
      </trkpt>
      <trkpt lat="43.96464" lon="5.23823">
        <ele>494.26</ele>
        <time>2021-05-03T12:18:36Z</time>
      </trkpt>
      <trkpt lat="43.9645" lon="5.23827">
        <ele>493.29</ele>
        <time>2021-05-03T12:18:49Z</time>
      </trkpt>
      <trkpt lat="43.96449" lon="5.23827">
        <ele>493.29</ele>
        <time>2021-05-03T12:18:50Z</time>
      </trkpt>
      <trkpt lat="43.96448" lon="5.23828">
        <ele>493.29</ele>
        <time>2021-05-03T12:18:51Z</time>
      </trkpt>
      <trkpt lat="43.96441" lon="5.23836">
        <ele>492.33</ele>
        <time>2021-05-03T12:19:02Z</time>
      </trkpt>
      <trkpt lat="43.96433" lon="5.23846">
        <ele>492.33</ele>
        <time>2021-05-03T12:19:13Z</time>
      </trkpt>
      <trkpt lat="43.96432" lon="5.23848">
        <ele>492.33</ele>
        <time>2021-05-03T12:19:14Z</time>
      </trkpt>
      <trkpt lat="43.96432" lon="5.23849">
        <ele>492.33</ele>
        <time>2021-05-03T12:19:15Z</time>
      </trkpt>
      <trkpt lat="43.96431" lon="5.23851">
        <ele>492.33</ele>
        <time>2021-05-03T12:19:16Z</time>
      </trkpt>
      <trkpt lat="43.96431" lon="5.23853">
        <ele>491.85</ele>
        <time>2021-05-03T12:19:17Z</time>
      </trkpt>
      <trkpt lat="43.96431" lon="5.23855">
        <ele>491.85</ele>
        <time>2021-05-03T12:19:18Z</time>
      </trkpt>
      <trkpt lat="43.96432" lon="5.23859">
        <ele>491.85</ele>
        <time>2021-05-03T12:19:20Z</time>
      </trkpt>
      <trkpt lat="43.96434" lon="5.23887">
        <ele>490.41</ele>
        <time>2021-05-03T12:19:37Z</time>
      </trkpt>
      <trkpt lat="43.96431" lon="5.23893">
        <ele>490.41</ele>
        <time>2021-05-03T12:19:41Z</time>
      </trkpt>
      <trkpt lat="43.9643" lon="5.23894">
        <ele>490.41</ele>
        <time>2021-05-03T12:19:42Z</time>
      </trkpt>
      <trkpt lat="43.96429" lon="5.23895">
        <ele>489.93</ele>
        <time>2021-05-03T12:19:43Z</time>
      </trkpt>
      <trkpt lat="43.96428" lon="5.23896">
        <ele>489.93</ele>
        <time>2021-05-03T12:19:44Z</time>
      </trkpt>
      <trkpt lat="43.96426" lon="5.23897">
        <ele>489.45</ele>
        <time>2021-05-03T12:19:45Z</time>
      </trkpt>
      <trkpt lat="43.96425" lon="5.23898">
        <ele>489.45</ele>
        <time>2021-05-03T12:19:46Z</time>
      </trkpt>
      <trkpt lat="43.96424" lon="5.23899">
        <ele>489.45</ele>
        <time>2021-05-03T12:19:47Z</time>
      </trkpt>
      <trkpt lat="43.96423" lon="5.23899">
        <ele>489.45</ele>
        <time>2021-05-03T12:19:48Z</time>
      </trkpt>
      <trkpt lat="43.96421" lon="5.23899">
        <ele>489.45</ele>
        <time>2021-05-03T12:19:49Z</time>
      </trkpt>
      <trkpt lat="43.96399" lon="5.239">
        <ele>489.45</ele>
        <time>2021-05-03T12:20:06Z</time>
      </trkpt>
      <trkpt lat="43.96382" lon="5.23908">
        <ele>489.93</ele>
        <time>2021-05-03T12:20:20Z</time>
      </trkpt>
      <trkpt lat="43.96368" lon="5.23918">
        <ele>490.89</ele>
        <time>2021-05-03T12:20:35Z</time>
      </trkpt>
      <trkpt lat="43.96357" lon="5.23928">
        <ele>492.81</ele>
        <time>2021-05-03T12:20:51Z</time>
      </trkpt>
      <trkpt lat="43.96342" lon="5.23943">
        <ele>493.77</ele>
        <time>2021-05-03T12:21:08Z</time>
      </trkpt>
      <trkpt lat="43.96327" lon="5.23956">
        <ele>495.22</ele>
        <time>2021-05-03T12:21:26Z</time>
      </trkpt>
      <trkpt lat="43.96304" lon="5.23976">
        <ele>497.62</ele>
        <time>2021-05-03T12:21:48Z</time>
      </trkpt>
      <trkpt lat="43.96289" lon="5.23989">
        <ele>499.06</ele>
        <time>2021-05-03T12:22:03Z</time>
      </trkpt>
      <trkpt lat="43.96272" lon="5.24">
        <ele>502.43</ele>
        <time>2021-05-03T12:22:22Z</time>
      </trkpt>
      <trkpt lat="43.96258" lon="5.24006">
        <ele>503.87</ele>
        <time>2021-05-03T12:22:37Z</time>
      </trkpt>
      <trkpt lat="43.9626" lon="5.24005">
        <ele>503.39</ele>
        <time>2021-05-03T12:23:11Z</time>
      </trkpt>
      <trkpt lat="43.9626" lon="5.24007">
        <ele>504.83</ele>
        <time>2021-05-03T12:23:32Z</time>
      </trkpt>
      <trkpt lat="43.9626" lon="5.24008">
        <ele>505.31</ele>
        <time>2021-05-03T12:24:02Z</time>
      </trkpt>
      <trkpt lat="43.96259" lon="5.24005">
        <ele>505.31</ele>
        <time>2021-05-03T12:24:31Z</time>
      </trkpt>
      <trkpt lat="43.96255" lon="5.24005">
        <ele>505.79</ele>
        <time>2021-05-03T12:24:33Z</time>
      </trkpt>
      <trkpt lat="43.96254" lon="5.24005">
        <ele>505.79</ele>
        <time>2021-05-03T12:24:34Z</time>
      </trkpt>
      <trkpt lat="43.96252" lon="5.24004">
        <ele>505.79</ele>
        <time>2021-05-03T12:24:35Z</time>
      </trkpt>
      <trkpt lat="43.96236" lon="5.24005">
        <ele>508.67</ele>
        <time>2021-05-03T12:24:52Z</time>
      </trkpt>
      <trkpt lat="43.96218" lon="5.24005">
        <ele>511.56</ele>
        <time>2021-05-03T12:25:13Z</time>
      </trkpt>
      <trkpt lat="43.96206" lon="5.24002">
        <ele>513.96</ele>
        <time>2021-05-03T12:25:27Z</time>
      </trkpt>
      <trkpt lat="43.96195" lon="5.24002">
        <ele>516.37</ele>
        <time>2021-05-03T12:25:40Z</time>
      </trkpt>
      <trkpt lat="43.96186" lon="5.24016">
        <ele>519.73</ele>
        <time>2021-05-03T12:25:56Z</time>
      </trkpt>
      <trkpt lat="43.9618" lon="5.24044">
        <ele>522.13</ele>
        <time>2021-05-03T12:26:21Z</time>
      </trkpt>
      <trkpt lat="43.96172" lon="5.24067">
        <ele>523.58</ele>
        <time>2021-05-03T12:26:42Z</time>
      </trkpt>
      <trkpt lat="43.96155" lon="5.24086">
        <ele>525.98</ele>
        <time>2021-05-03T12:27:07Z</time>
      </trkpt>
      <trkpt lat="43.96141" lon="5.24103">
        <ele>526.46</ele>
        <time>2021-05-03T12:27:27Z</time>
      </trkpt>
      <trkpt lat="43.96134" lon="5.24112">
        <ele>527.42</ele>
        <time>2021-05-03T12:27:47Z</time>
      </trkpt>
      <trkpt lat="43.96136" lon="5.24112">
        <ele>527.42</ele>
        <time>2021-05-03T12:28:27Z</time>
      </trkpt>
      <trkpt lat="43.96135" lon="5.24111">
        <ele>526.94</ele>
        <time>2021-05-03T12:28:57Z</time>
      </trkpt>
      <trkpt lat="43.96129" lon="5.24113">
        <ele>526.94</ele>
        <time>2021-05-03T12:29:29Z</time>
      </trkpt>
      <trkpt lat="43.9613" lon="5.24118">
        <ele>527.9</ele>
        <time>2021-05-03T12:29:55Z</time>
      </trkpt>
      <trkpt lat="43.96132" lon="5.24119">
        <ele>527.9</ele>
        <time>2021-05-03T12:30:25Z</time>
      </trkpt>
      <trkpt lat="43.96129" lon="5.24118">
        <ele>527.42</ele>
        <time>2021-05-03T12:30:53Z</time>
      </trkpt>
      <trkpt lat="43.96122" lon="5.24121">
        <ele>527.42</ele>
        <time>2021-05-03T12:31:22Z</time>
      </trkpt>
      <trkpt lat="43.96108" lon="5.24129">
        <ele>527.42</ele>
        <time>2021-05-03T12:31:36Z</time>
      </trkpt>
      <trkpt lat="43.96106" lon="5.2413">
        <ele>527.42</ele>
        <time>2021-05-03T12:31:38Z</time>
      </trkpt>
      <trkpt lat="43.96094" lon="5.24136">
        <ele>527.9</ele>
        <time>2021-05-03T12:31:51Z</time>
      </trkpt>
      <trkpt lat="43.9608" lon="5.24149">
        <ele>528.38</ele>
        <time>2021-05-03T12:32:07Z</time>
      </trkpt>
      <trkpt lat="43.96079" lon="5.24157">
        <ele>528.38</ele>
        <time>2021-05-03T12:32:12Z</time>
      </trkpt>
      <trkpt lat="43.96079" lon="5.24159">
        <ele>527.9</ele>
        <time>2021-05-03T12:32:13Z</time>
      </trkpt>
      <trkpt lat="43.96079" lon="5.24168">
        <ele>527.9</ele>
        <time>2021-05-03T12:32:18Z</time>
      </trkpt>
      <trkpt lat="43.96079" lon="5.24169">
        <ele>527.9</ele>
        <time>2021-05-03T12:32:19Z</time>
      </trkpt>
      <trkpt lat="43.96079" lon="5.24171">
        <ele>527.9</ele>
        <time>2021-05-03T12:32:20Z</time>
      </trkpt>
      <trkpt lat="43.96078" lon="5.24173">
        <ele>527.42</ele>
        <time>2021-05-03T12:32:22Z</time>
      </trkpt>
      <trkpt lat="43.96082" lon="5.24196">
        <ele>526.94</ele>
        <time>2021-05-03T12:32:37Z</time>
      </trkpt>
      <trkpt lat="43.96085" lon="5.24211">
        <ele>527.42</ele>
        <time>2021-05-03T12:32:49Z</time>
      </trkpt>
      <trkpt lat="43.96086" lon="5.24213">
        <ele>527.42</ele>
        <time>2021-05-03T12:32:50Z</time>
      </trkpt>
      <trkpt lat="43.96086" lon="5.24215">
        <ele>527.42</ele>
        <time>2021-05-03T12:32:51Z</time>
      </trkpt>
      <trkpt lat="43.96086" lon="5.24227">
        <ele>527.42</ele>
        <time>2021-05-03T12:33:08Z</time>
      </trkpt>
      <trkpt lat="43.96093" lon="5.24238">
        <ele>526.94</ele>
        <time>2021-05-03T12:33:24Z</time>
      </trkpt>
      <trkpt lat="43.96093" lon="5.24254">
        <ele>525.98</ele>
        <time>2021-05-03T12:33:35Z</time>
      </trkpt>
      <trkpt lat="43.96091" lon="5.24263">
        <ele>525.5</ele>
        <time>2021-05-03T12:33:42Z</time>
      </trkpt>
      <trkpt lat="43.96091" lon="5.24264">
        <ele>525.5</ele>
        <time>2021-05-03T12:33:43Z</time>
      </trkpt>
      <trkpt lat="43.96089" lon="5.24264">
        <ele>525.5</ele>
        <time>2021-05-03T12:33:44Z</time>
      </trkpt>
      <trkpt lat="43.96085" lon="5.24268">
        <ele>525.5</ele>
        <time>2021-05-03T12:33:48Z</time>
      </trkpt>
      <trkpt lat="43.96088" lon="5.24274">
        <ele>525.02</ele>
        <time>2021-05-03T12:33:52Z</time>
      </trkpt>
      <trkpt lat="43.96089" lon="5.24275">
        <ele>525.02</ele>
        <time>2021-05-03T12:33:53Z</time>
      </trkpt>
      <trkpt lat="43.96102" lon="5.24294">
        <ele>525.5</ele>
        <time>2021-05-03T12:34:10Z</time>
      </trkpt>
      <trkpt lat="43.96106" lon="5.24313">
        <ele>525.5</ele>
        <time>2021-05-03T12:34:26Z</time>
      </trkpt>
      <trkpt lat="43.961" lon="5.24346">
        <ele>523.58</ele>
        <time>2021-05-03T12:34:49Z</time>
      </trkpt>
      <trkpt lat="43.96099" lon="5.24374">
        <ele>522.13</ele>
        <time>2021-05-03T12:35:08Z</time>
      </trkpt>
      <trkpt lat="43.96095" lon="5.244">
        <ele>520.69</ele>
        <time>2021-05-03T12:35:27Z</time>
      </trkpt>
      <trkpt lat="43.96095" lon="5.24404">
        <ele>520.21</ele>
        <time>2021-05-03T12:35:29Z</time>
      </trkpt>
      <trkpt lat="43.96087" lon="5.24431">
        <ele>519.73</ele>
        <time>2021-05-03T12:35:46Z</time>
      </trkpt>
      <trkpt lat="43.96084" lon="5.24462">
        <ele>517.81</ele>
        <time>2021-05-03T12:36:05Z</time>
      </trkpt>
      <trkpt lat="43.96083" lon="5.24472">
        <ele>517.33</ele>
        <time>2021-05-03T12:36:12Z</time>
      </trkpt>
      <trkpt lat="43.96083" lon="5.24476">
        <ele>516.85</ele>
        <time>2021-05-03T12:36:14Z</time>
      </trkpt>
      <trkpt lat="43.96076" lon="5.24502">
        <ele>516.37</ele>
        <time>2021-05-03T12:36:29Z</time>
      </trkpt>
      <trkpt lat="43.96071" lon="5.24522">
        <ele>515.4</ele>
        <time>2021-05-03T12:36:42Z</time>
      </trkpt>
      <trkpt lat="43.96069" lon="5.24546">
        <ele>514.44</ele>
        <time>2021-05-03T12:36:58Z</time>
      </trkpt>
      <trkpt lat="43.96063" lon="5.24572">
        <ele>513.48</ele>
        <time>2021-05-03T12:37:14Z</time>
      </trkpt>
      <trkpt lat="43.96063" lon="5.24582">
        <ele>513</ele>
        <time>2021-05-03T12:37:20Z</time>
      </trkpt>
      <trkpt lat="43.96061" lon="5.24586">
        <ele>513</ele>
        <time>2021-05-03T12:37:23Z</time>
      </trkpt>
      <trkpt lat="43.96062" lon="5.24588">
        <ele>513</ele>
        <time>2021-05-03T12:37:24Z</time>
      </trkpt>
      <trkpt lat="43.96062" lon="5.24594">
        <ele>512.52</ele>
        <time>2021-05-03T12:37:28Z</time>
      </trkpt>
      <trkpt lat="43.96062" lon="5.24595">
        <ele>512.52</ele>
        <time>2021-05-03T12:37:29Z</time>
      </trkpt>
      <trkpt lat="43.96061" lon="5.24597">
        <ele>512.52</ele>
        <time>2021-05-03T12:37:30Z</time>
      </trkpt>
      <trkpt lat="43.96061" lon="5.24599">
        <ele>512.52</ele>
        <time>2021-05-03T12:37:31Z</time>
      </trkpt>
      <trkpt lat="43.96061" lon="5.24601">
        <ele>512.52</ele>
        <time>2021-05-03T12:37:32Z</time>
      </trkpt>
      <trkpt lat="43.9606" lon="5.2462">
        <ele>512.52</ele>
        <time>2021-05-03T12:37:44Z</time>
      </trkpt>
      <trkpt lat="43.9606" lon="5.24623">
        <ele>512.52</ele>
        <time>2021-05-03T12:37:46Z</time>
      </trkpt>
      <trkpt lat="43.9606" lon="5.24625">
        <ele>512.52</ele>
        <time>2021-05-03T12:37:47Z</time>
      </trkpt>
      <trkpt lat="43.9606" lon="5.24627">
        <ele>512.52</ele>
        <time>2021-05-03T12:37:48Z</time>
      </trkpt>
      <trkpt lat="43.9606" lon="5.24629">
        <ele>512.52</ele>
        <time>2021-05-03T12:37:49Z</time>
      </trkpt>
      <trkpt lat="43.96058" lon="5.24657">
        <ele>513</ele>
        <time>2021-05-03T12:38:05Z</time>
      </trkpt>
      <trkpt lat="43.96053" lon="5.24693">
        <ele>512.52</ele>
        <time>2021-05-03T12:38:29Z</time>
      </trkpt>
      <trkpt lat="43.96048" lon="5.24722">
        <ele>512.52</ele>
        <time>2021-05-03T12:38:46Z</time>
      </trkpt>
      <trkpt lat="43.96044" lon="5.24733">
        <ele>512.04</ele>
        <time>2021-05-03T12:38:55Z</time>
      </trkpt>
      <trkpt lat="43.96024" lon="5.2474">
        <ele>511.56</ele>
        <time>2021-05-03T12:39:12Z</time>
      </trkpt>
      <trkpt lat="43.96001" lon="5.2474">
        <ele>510.6</ele>
        <time>2021-05-03T12:39:30Z</time>
      </trkpt>
      <trkpt lat="43.95984" lon="5.24738">
        <ele>510.12</ele>
        <time>2021-05-03T12:39:45Z</time>
      </trkpt>
      <trkpt lat="43.95972" lon="5.2474">
        <ele>510.6</ele>
        <time>2021-05-03T12:39:56Z</time>
      </trkpt>
    </trkseg>
  </trk>
</gpx>